Observation data for Fort Lancaster on 05/23/2020      Previous  Date  Next       Current Mesonet Observations  Soil Data  Daily Summary Page  Observations in Plain Language
KLA1 230500Z 16011KT 29/19 A2983 RMK A01 T02870185  RH  054%=      5-min Rain = 0
KLA1 230501Z 15010KT 29/19 A2983 RMK A01 T02880186  RH  054%=      5-min Rain = 0
KLA1 230502Z 16010KT 29/19 A2983 RMK A01 T02880186  RH  054%=      5-min Rain = 0
KLA1 230503Z 15012KT 29/19 A2983 RMK A01 T02880186  RH  054%=      5-min Rain = 0
KLA1 230504Z 15009KT 29/19 A2983 RMK A01 T02880186  RH  054%=      5-min Rain = 0
KLA1 230505Z 15008KT 29/19 A2982 RMK A01 T02880186  RH  054%=      5-min Rain = 0
KLA1 230506Z 15010KT 29/19 A2982 RMK A01 T02870185  RH  054%=      5-min Rain = 0
KLA1 230507Z 14009KT 29/19 A2982 RMK A01 T02870185  RH  054%=      5-min Rain = 0
KLA1 230508Z 15009KT 29/19 A2982 RMK A01 T02870185  RH  054%=      5-min Rain = 0
KLA1 230509Z 14008KT 29/19 A2982 RMK A01 T02860185  RH  054%=      5-min Rain = 0
KLA1 230510Z 15010KT 29/19 A2982 RMK A01 T02860185  RH  054%=      5-min Rain = 0
KLA1 230511Z 14008KT 29/19 A2982 RMK A01 T02860185  RH  054%=      5-min Rain = 0
KLA1 230512Z 14009KT 29/19 A2982 RMK A01 T02860185  RH  054%=      5-min Rain = 0
KLA1 230513Z 15008KT 29/19 A2982 RMK A01 T02850185  RH  054%=      5-min Rain = 0
KLA1 230514Z 14008KT 29/19 A2982 RMK A01 T02850185  RH  055%=      5-min Rain = 0
KLA1 230515Z 14008KT 29/19 A2982 RMK A01 T02850185  RH  055%=      5-min Rain = 0
KLA1 230516Z 14010KT 28/18 A2982 RMK A01 T02840184  RH  055%=      5-min Rain = 0
KLA1 230517Z 15010KT 28/18 A2982 RMK A01 T02840184  RH  055%=      5-min Rain = 0
KLA1 230518Z 14007KT 28/18 A2982 RMK A01 T02840184  RH  055%=      5-min Rain = 0
KLA1 230519Z 14008KT 28/18 A2982 RMK A01 T02840184  RH  055%=      5-min Rain = 0
KLA1 230520Z 15009KT 28/18 A2982 RMK A01 T02840184  RH  055%=      5-min Rain = 0
KLA1 230521Z 15010KT 28/18 A2982 RMK A01 T02840183  RH  055%=      5-min Rain = 0
KLA1 230522Z 14009KT 28/18 A2982 RMK A01 T02830183  RH  055%=      5-min Rain = 0
KLA1 230523Z 15008KT 28/18 A2982 RMK A01 T02840184  RH  055%=      5-min Rain = 0
KLA1 230524Z 14008KT 28/18 A2982 RMK A01 T02830183  RH  055%=      5-min Rain = 0
KLA1 230525Z 14011KT 28/18 A2982 RMK A01 T02830183  RH  054%=      5-min Rain = 0
KLA1 230526Z 15011KT 28/18 A2982 RMK A01 T02830182  RH  054%=      5-min Rain = 0
KLA1 230527Z 16008KT 28/18 A2982 RMK A01 T02840182  RH  054%=      5-min Rain = 0
KLA1 230528Z 15010KT 28/18 A2982 RMK A01 T02840182  RH  054%=      5-min Rain = 0
KLA1 230529Z 15009KT 28/18 A2982 RMK A01 T02840182  RH  054%=      5-min Rain = 0
KLA1 230530Z 16010KT 28/18 A2982 RMK A01 T02840182  RH  054%=      5-min Rain = 0
KLA1 230531Z 16008KT 28/18 A2982 RMK A01 T02840182  RH  054%=      5-min Rain = 0
KLA1 230532Z 15008KT 28/18 A2982 RMK A01 T02830181  RH  054%=      5-min Rain = 0
KLA1 230533Z 15011KT 28/18 A2982 RMK A01 T02830181  RH  054%=      5-min Rain = 0
KLA1 230534Z 15011KT 28/18 A2982 RMK A01 T02830181  RH  054%=      5-min Rain = 0
KLA1 230535Z 16010KT 28/18 A2982 RMK A01 T02840181  RH  054%=      5-min Rain = 0
KLA1 230536Z 15008KT 28/18 A2982 RMK A01 T02840181  RH  054%=      5-min Rain = 0
KLA1 230537Z 14008KT 28/18 A2982 RMK A01 T02840180  RH  054%=      5-min Rain = 0
KLA1 230538Z 15010G15KT 28/18 A2981 RMK A01 T02830180  RH  053%=      5-min Rain = 0
KLA1 230539Z 15011KT 28/18 A2981 RMK A01 T02840180  RH  053%=      5-min Rain = 0
KLA1 230540Z 16009KT 28/18 A2981 RMK A01 T02840180  RH  053%=      5-min Rain = 0
KLA1 230541Z 16010KT 28/18 A2981 RMK A01 T02840180  RH  053%=      5-min Rain = 0
KLA1 230542Z 16009KT 28/18 A2981 RMK A01 T02840179  RH  053%=      5-min Rain = 0
KLA1 230543Z 15005KT 28/18 A2981 RMK A01 T02840179  RH  053%=      5-min Rain = 0
KLA1 230544Z 15009KT 28/18 A2981 RMK A01 T02830179  RH  053%=      5-min Rain = 0
KLA1 230545Z 17008KT 28/18 A2981 RMK A01 T02830179  RH  053%=      5-min Rain = 0
KLA1 230546Z 16007KT 28/18 A2981 RMK A01 T02830179  RH  053%=      5-min Rain = 0
KLA1 230547Z 15011KT 28/18 A2981 RMK A01 T02820179  RH  053%=      5-min Rain = 0
KLA1 230548Z 16009KT 28/18 A2981 RMK A01 T02820178  RH  053%=      5-min Rain = 0
KLA1 230549Z 16007KT 28/18 A2981 RMK A01 T02820178  RH  053%=      5-min Rain = 0
KLA1 230550Z 15009KT 28/18 A2981 RMK A01 T02820178  RH  053%=      5-min Rain = 0
KLA1 230551Z 16012KT 28/18 A2981 RMK A01 T02820178  RH  053%=      5-min Rain = 0
KLA1 230552Z 16008KT 28/18 A2981 RMK A01 T02820179  RH  053%=      5-min Rain = 0
KLA1 230553Z 15009KT 28/18 A2981 RMK A01 T02830178  RH  053%=      5-min Rain = 0
KLA1 230554Z 15008KT 28/18 A2981 RMK A01 T02820179  RH  053%=      5-min Rain = 0
KLA1 230555Z 15010KT 28/18 A2981 RMK A01 T02820178  RH  053%=      5-min Rain = 0
KLA1 230556Z 16008KT 28/18 A2981 RMK A01 T02820179  RH  054%=      5-min Rain = 0
KLA1 230557Z 16009KT 28/18 A2981 RMK A01 T02810178  RH  054%=      5-min Rain = 0
KLA1 230558Z 15008KT 28/18 A2981 RMK A01 T02810178  RH  054%=      5-min Rain = 0
KLA1 230559Z 16007KT 28/18 A298 RMK A01 T02810178  RH  054%=      5-min Rain = 0
KLA1 230600Z 15009KT 28/18 A298 RMK A01 T02800178  RH  054%=      5-min Rain = 0
KLA1 230601Z 15012G17KT 28/18 A298 RMK A01 T02800178  RH  054%=      5-min Rain = 0
KLA1 230602Z 15008KT 28/18 A298 RMK A01 T02810177  RH  053%=      5-min Rain = 0
KLA1 230603Z 16008KT 28/18 A298 RMK A01 T02810177  RH  053%=      5-min Rain = 0
KLA1 230604Z 15010KT 28/18 A298 RMK A01 T02810177  RH  053%=      5-min Rain = 0
KLA1 230605Z 15009G14KT 28/18 A298 RMK A01 T02800177  RH  053%=      5-min Rain = 0
KLA1 230606Z 16011KT 28/18 A298 RMK A01 T02800177  RH  053%=      5-min Rain = 0
KLA1 230607Z 16008KT 28/18 A298 RMK A01 T02800176  RH  053%=      5-min Rain = 0
KLA1 230608Z 15008KT 28/18 A298 RMK A01 T02790175  RH  053%=      5-min Rain = 0
KLA1 230609Z 15006KT 28/18 A298 RMK A01 T02790175  RH  053%=      5-min Rain = 0
KLA1 230610Z 15007G12KT 28/18 A298 RMK A01 T02790175  RH  053%=      5-min Rain = 0
KLA1 230611Z 15009KT 28/17 A298 RMK A01 T02780174  RH  053%=      5-min Rain = 0
KLA1 230612Z 15008KT 28/17 A298 RMK A01 T02780174  RH  053%=      5-min Rain = 0
KLA1 230613Z 16013KT 28/17 A298 RMK A01 T02780173  RH  053%=      5-min Rain = 0
KLA1 230614Z 15013KT 28/17 A298 RMK A01 T02780170  RH  052%=      5-min Rain = 0
KLA1 230615Z 15010KT 28/17 A298 RMK A01 T02790170  RH  051%=      5-min Rain = 0
KLA1 230616Z 15010G15KT 28/17 A298 RMK A01 T02790170  RH  051%=      5-min Rain = 0
KLA1 230617Z 14013KT 28/17 A2979 RMK A01 T02790170  RH  051%=      5-min Rain = 0
KLA1 230618Z 15010KT 28/17 A298 RMK A01 T02790170  RH  051%=      5-min Rain = 0
KLA1 230619Z 14013G18KT 28/17 A2979 RMK A01 T02790170  RH  051%=      5-min Rain = 0
KLA1 230620Z 15015KT 28/17 A2979 RMK A01 T02790169  RH  051%=      5-min Rain = 0
KLA1 230621Z 14013KT 28/17 A2979 RMK A01 T02790169  RH  051%=      5-min Rain = 0
KLA1 230622Z 15014KT 28/17 A2979 RMK A01 T02790169  RH  051%=      5-min Rain = 0
KLA1 230623Z 15012G17KT 28/17 A2979 RMK A01 T02790169  RH  051%=      5-min Rain = 0
KLA1 230624Z 14008KT 28/17 A2979 RMK A01 T02790169  RH  051%=      5-min Rain = 0
KLA1 230625Z 14011KT 28/17 A2979 RMK A01 T02780169  RH  052%=      5-min Rain = 0
KLA1 230626Z 15011KT 28/17 A2979 RMK A01 T02770169  RH  052%=      5-min Rain = 0
KLA1 230627Z 15015KT 28/17 A2979 RMK A01 T02770169  RH  052%=      5-min Rain = 0
KLA1 230628Z 16012KT 28/17 A2979 RMK A01 T02770168  RH  051%=      5-min Rain = 0
KLA1 230629Z 15013KT 28/17 A2979 RMK A01 T02780168  RH  051%=      5-min Rain = 0
KLA1 230630Z 15014KT 28/17 A2979 RMK A01 T02780168  RH  051%=      5-min Rain = 0
KLA1 230631Z 15010G16KT 28/17 A2979 RMK A01 T02780168  RH  051%=      5-min Rain = 0
KLA1 230632Z 15009G14KT 28/17 A2979 RMK A01 T02780167  RH  051%=      5-min Rain = 0
KLA1 230633Z 14011KT 28/17 A2979 RMK A01 T02770167  RH  051%=      5-min Rain = 0
KLA1 230634Z 15009KT 28/17 A2979 RMK A01 T02770167  RH  051%=      5-min Rain = 0
KLA1 230635Z 15010KT 28/17 A2979 RMK A01 T02760167  RH  051%=      5-min Rain = 0
KLA1 230636Z 14010KT 28/17 A2979 RMK A01 T02760167  RH  051%=      5-min Rain = 0
KLA1 230637Z 15012KT 28/17 A2979 RMK A01 T02760167  RH  051%=      5-min Rain = 0
KLA1 230638Z 15013KT 28/17 A2979 RMK A01 T02760167  RH  051%=      5-min Rain = 0
KLA1 230639Z 16013KT 28/17 A2978 RMK A01 T02760166  RH  051%=      5-min Rain = 0
KLA1 230640Z 14013G18KT 28/17 A2978 RMK A01 T02760166  RH  051%=      5-min Rain = 0
KLA1 230641Z 14011KT 28/17 A2978 RMK A01 T02760166  RH  051%=      5-min Rain = 0
KLA1 230642Z 14016KT 28/17 A2978 RMK A01 T02760167  RH  051%=      5-min Rain = 0
KLA1 230643Z 13013G19KT 28/17 A2978 RMK A01 T02760167  RH  051%=      5-min Rain = 0
KLA1 230644Z 13013G19KT 28/17 A2978 RMK A01 T02760167  RH  051%=      5-min Rain = 0
KLA1 230645Z 14015G20KT 28/17 A2978 RMK A01 T02760167  RH  052%=      5-min Rain = 0
KLA1 230646Z 14010KT 28/17 A2978 RMK A01 T02750167  RH  052%=      5-min Rain = 0
KLA1 230647Z 13008KT 28/17 A2978 RMK A01 T02750167  RH  052%=      5-min Rain = 0
KLA1 230648Z 13012KT 27/17 A2978 RMK A01 T02740167  RH  052%=      5-min Rain = 0
KLA1 230649Z 13010KT 27/17 A2978 RMK A01 T02730167  RH  052%=      5-min Rain = 0
KLA1 230650Z 13009KT 27/17 A2978 RMK A01 T02720167  RH  053%=      5-min Rain = 0
KLA1 230651Z 13010KT 27/17 A2978 RMK A01 T02710168  RH  053%=      5-min Rain = 0
KLA1 230652Z 13010KT 27/17 A2978 RMK A01 T02700168  RH  054%=      5-min Rain = 0
KLA1 230653Z 14012KT 27/17 A2978 RMK A01 T02690168  RH  054%=      5-min Rain = 0
KLA1 230654Z 13010KT 27/17 A2978 RMK A01 T02690168  RH  054%=      5-min Rain = 0
KLA1 230655Z 14010KT 27/17 A2978 RMK A01 T02690168  RH  054%=      5-min Rain = 0
KLA1 230656Z 14009KT 27/17 A2978 RMK A01 T02690169  RH  054%=      5-min Rain = 0
KLA1 230657Z 14011KT 27/17 A2978 RMK A01 T02690168  RH  054%=      5-min Rain = 0
KLA1 230658Z 14010KT 27/17 A2978 RMK A01 T02680168  RH  054%=      5-min Rain = 0
KLA1 230659Z 14012G18KT 27/17 A2978 RMK A01 T02680168  RH  054%=      5-min Rain = 0
KLA1 230700Z 14012KT 27/17 A2978 RMK A01 T02680168  RH  054%=      5-min Rain = 0
KLA1 230701Z 14011KT 27/17 A2978 RMK A01 T02690169  RH  054%=      5-min Rain = 0
KLA1 230702Z 14009KT 27/17 A2978 RMK A01 T02690169  RH  054%=      5-min Rain = 0
KLA1 230703Z 14011KT 27/17 A2978 RMK A01 T02690169  RH  054%=      5-min Rain = 0
KLA1 230704Z 14012G17KT 27/17 A2978 RMK A01 T02690169  RH  054%=      5-min Rain = 0
KLA1 230705Z 15010KT 27/17 A2978 RMK A01 T02690169  RH  054%=      5-min Rain = 0
KLA1 230706Z 15010KT 27/17 A2978 RMK A01 T02690169  RH  054%=      5-min Rain = 0
KLA1 230707Z 14008KT 27/17 A2978 RMK A01 T02690169  RH  054%=      5-min Rain = 0
KLA1 230708Z 14008KT 27/17 A2978 RMK A01 T02690169  RH  054%=      5-min Rain = 0
KLA1 230709Z 14011KT 27/17 A2978 RMK A01 T02680168  RH  054%=      5-min Rain = 0
KLA1 230710Z 14009KT 27/17 A2978 RMK A01 T02680168  RH  054%=      5-min Rain = 0
KLA1 230711Z 13009KT 27/17 A2978 RMK A01 T02680168  RH  054%=      5-min Rain = 0
KLA1 230712Z 14008KT 27/17 A2978 RMK A01 T02670168  RH  054%=      5-min Rain = 0
KLA1 230713Z 14009KT 27/17 A2978 RMK A01 T02670168  RH  054%=      5-min Rain = 0
KLA1 230714Z 13008KT 27/17 A2978 RMK A01 T02670167  RH  054%=      5-min Rain = 0
KLA1 230715Z 14006KT 27/17 A2978 RMK A01 T02660167  RH  055%=      5-min Rain = 0
KLA1 230716Z 13007KT 27/17 A2978 RMK A01 T02650167  RH  055%=      5-min Rain = 0
KLA1 230717Z 13008KT 27/17 A2978 RMK A01 T02650167  RH  055%=      5-min Rain = 0
KLA1 230718Z 13008KT 27/17 A2978 RMK A01 T02650167  RH  055%=      5-min Rain = 0
KLA1 230719Z 13008KT 27/17 A2978 RMK A01 T02650167  RH  055%=      5-min Rain = 0
KLA1 230720Z 13008KT 27/17 A2978 RMK A01 T02650167  RH  055%=      5-min Rain = 0
KLA1 230721Z 13007KT 26/17 A2978 RMK A01 T02640167  RH  055%=      5-min Rain = 0
KLA1 230722Z 12009KT 26/17 A2978 RMK A01 T02640167  RH  055%=      5-min Rain = 0
KLA1 230723Z 13008KT 26/17 A2978 RMK A01 T02640167  RH  055%=      5-min Rain = 0
KLA1 230724Z 14009KT 26/17 A2978 RMK A01 T02640167  RH  055%=      5-min Rain = 0
KLA1 230725Z 13007KT 26/17 A2978 RMK A01 T02640167  RH  055%=      5-min Rain = 0
KLA1 230726Z 13007KT 26/17 A2978 RMK A01 T02640167  RH  055%=      5-min Rain = 0
KLA1 230727Z 13007KT 26/17 A2978 RMK A01 T02630167  RH  055%=      5-min Rain = 0
KLA1 230728Z 13007KT 26/17 A2978 RMK A01 T02630166  RH  055%=      5-min Rain = 0
KLA1 230729Z 13007KT 26/17 A2978 RMK A01 T02630167  RH  055%=      5-min Rain = 0
KLA1 230730Z 13008KT 26/17 A2978 RMK A01 T02620167  RH  056%=      5-min Rain = 0
KLA1 230731Z 14011KT 26/17 A2978 RMK A01 T02630167  RH  055%=      5-min Rain = 0
KLA1 230732Z 13008KT 26/17 A2978 RMK A01 T02630167  RH  055%=      5-min Rain = 0
KLA1 230733Z 14007KT 26/17 A2978 RMK A01 T02640167  RH  055%=      5-min Rain = 0
KLA1 230734Z 14008KT 26/17 A2978 RMK A01 T02640167  RH  055%=      5-min Rain = 0
KLA1 230735Z 14007KT 26/17 A2978 RMK A01 T02640167  RH  055%=      5-min Rain = 0
KLA1 230736Z 13007KT 26/17 A2978 RMK A01 T02640167  RH  055%=      5-min Rain = 0
KLA1 230737Z 13006KT 26/17 A2978 RMK A01 T02630167  RH  055%=      5-min Rain = 0
KLA1 230738Z 13005KT 26/17 A2978 RMK A01 T02630167  RH  056%=      5-min Rain = 0
KLA1 230739Z 13004KT 26/17 A2978 RMK A01 T02630167  RH  056%=      5-min Rain = 0
KLA1 230740Z 13005KT 26/17 A2978 RMK A01 T02620167  RH  056%=      5-min Rain = 0
KLA1 230741Z 14005KT 26/17 A2978 RMK A01 T02620167  RH  056%=      5-min Rain = 0
KLA1 230742Z 13006KT 26/17 A2978 RMK A01 T02620167  RH  056%=      5-min Rain = 0
KLA1 230743Z 14005KT 26/17 A2978 RMK A01 T02620167  RH  056%=      5-min Rain = 0
KLA1 230744Z 13004KT 26/17 A2978 RMK A01 T02620167  RH  056%=      5-min Rain = 0
KLA1 230745Z 14004KT 26/17 A2978 RMK A01 T02610167  RH  056%=      5-min Rain = 0
KLA1 230746Z 13004KT 26/17 A2978 RMK A01 T02600167  RH  056%=      5-min Rain = 0
KLA1 230747Z 14006KT 26/17 A2978 RMK A01 T02600167  RH  057%=      5-min Rain = 0
KLA1 230748Z 12005KT 26/17 A2978 RMK A01 T02600167  RH  057%=      5-min Rain = 0
KLA1 230749Z 11005KT 26/17 A2978 RMK A01 T02600167  RH  056%=      5-min Rain = 0
KLA1 230750Z 10003KT 26/17 A2978 RMK A01 T02600167  RH  056%=      5-min Rain = 0
KLA1 230751Z 08002KT 26/17 A2978 RMK A01 T02590167  RH  057%=      5-min Rain = 0
KLA1 230752Z 10002KT 26/17 A2978 RMK A01 T02590167  RH  057%=      5-min Rain = 0
KLA1 230753Z 11003KT 26/17 A2978 RMK A01 T02590167  RH  057%=      5-min Rain = 0
KLA1 230754Z 10004KT 26/17 A2978 RMK A01 T02580167  RH  057%=      5-min Rain = 0
KLA1 230755Z 10003KT 26/17 A2978 RMK A01 T02570167  RH  057%=      5-min Rain = 0
KLA1 230756Z 10004KT 26/17 A2978 RMK A01 T02570167  RH  058%=      5-min Rain = 0
KLA1 230757Z 10004KT 26/17 A2978 RMK A01 T02560167  RH  058%=      5-min Rain = 0
KLA1 230758Z 11004KT 26/17 A2978 RMK A01 T02560168  RH  058%=      5-min Rain = 0
KLA1 230759Z 10004KT 26/17 A2978 RMK A01 T02560168  RH  058%=      5-min Rain = 0
KLA1 230800Z 10004KT 26/17 A2978 RMK A01 T02570168  RH  058%=      5-min Rain = 0
KLA1 230801Z 10004KT 26/17 A2978 RMK A01 T02570168  RH  058%=      5-min Rain = 0
KLA1 230802Z 10004KT 26/17 A2978 RMK A01 T02570168  RH  058%=      5-min Rain = 0
KLA1 230803Z 11004KT 26/17 A2978 RMK A01 T02560168  RH  058%=      5-min Rain = 0
KLA1 230804Z 10004KT 26/17 A2978 RMK A01 T02560168  RH  058%=      5-min Rain = 0
KLA1 230805Z 10004KT 26/17 A2978 RMK A01 T02560168  RH  058%=      5-min Rain = 0
KLA1 230806Z 10005KT 26/17 A2978 RMK A01 T02560168  RH  058%=      5-min Rain = 0
KLA1 230807Z 10005KT 26/17 A2978 RMK A01 T02550169  RH  059%=      5-min Rain = 0
KLA1 230808Z 11005KT 26/17 A2978 RMK A01 T02550169  RH  059%=      5-min Rain = 0
KLA1 230809Z 10005KT 26/17 A2978 RMK A01 T02560169  RH  059%=      5-min Rain = 0
KLA1 230810Z 11005KT 26/17 A2978 RMK A01 T02560169  RH  059%=      5-min Rain = 0
KLA1 230811Z 11005KT 26/17 A2978 RMK A01 T02560169  RH  059%=      5-min Rain = 0
KLA1 230812Z 11006KT 26/17 A2978 RMK A01 T02560169  RH  059%=      5-min Rain = 0
KLA1 230813Z 11005KT 26/17 A2978 RMK A01 T02560170  RH  059%=      5-min Rain = 0
KLA1 230814Z 10005KT 26/17 A2978 RMK A01 T02560170  RH  059%=      5-min Rain = 0
KLA1 230815Z 10005KT 26/17 A2978 RMK A01 T02560170  RH  059%=      5-min Rain = 0
KLA1 230816Z 10005KT 26/17 A2978 RMK A01 T02560170  RH  059%=      5-min Rain = 0
KLA1 230817Z 09005KT 26/17 A2978 RMK A01 T02560170  RH  059%=      5-min Rain = 0
KLA1 230818Z 10005KT 26/17 A2978 RMK A01 T02560170  RH  059%=      5-min Rain = 0
KLA1 230819Z 10006KT 26/17 A2978 RMK A01 T02570171  RH  059%=      5-min Rain = 0
KLA1 230820Z 10006KT 26/17 A2978 RMK A01 T02560171  RH  059%=      5-min Rain = 0
KLA1 230821Z 11008KT 26/17 A2978 RMK A01 T02560171  RH  059%=      5-min Rain = 0
KLA1 230822Z 10007KT 26/17 A2978 RMK A01 T02570171  RH  059%=      5-min Rain = 0
KLA1 230823Z 10006KT 26/17 A2978 RMK A01 T02580171  RH  059%=      5-min Rain = 0
KLA1 230824Z 11006KT 26/17 A2978 RMK A01 T02580172  RH  059%=      5-min Rain = 0
KLA1 230825Z 11006KT 26/17 A2978 RMK A01 T02580172  RH  059%=      5-min Rain = 0
KLA1 230826Z 10007KT 26/17 A2978 RMK A01 T02580173  RH  059%=      5-min Rain = 0
KLA1 230827Z 10007KT 26/17 A2978 RMK A01 T02580173  RH  060%=      5-min Rain = 0
KLA1 230828Z 10006KT 26/17 A2978 RMK A01 T02580174  RH  060%=      5-min Rain = 0
KLA1 230829Z 10006KT 26/17 A2978 RMK A01 T02570174  RH  060%=      5-min Rain = 0
KLA1 230830Z 10007KT 26/17 A2978 RMK A01 T02570174  RH  060%=      5-min Rain = 0
KLA1 230831Z 10006KT 26/17 A2978 RMK A01 T02570174  RH  060%=      5-min Rain = 0
KLA1 230832Z 11007KT 26/17 A2978 RMK A01 T02570174  RH  060%=      5-min Rain = 0
KLA1 230833Z 11007KT 26/17 A2978 RMK A01 T02570174  RH  060%=      5-min Rain = 0
KLA1 230834Z 10007KT 26/18 A2978 RMK A01 T02570175  RH  060%=      5-min Rain = 0
KLA1 230835Z 11007KT 26/18 A2978 RMK A01 T02570175  RH  060%=      5-min Rain = 0
KLA1 230836Z 11005KT 26/18 A2978 RMK A01 T02570175  RH  060%=      5-min Rain = 0
KLA1 230837Z 11005KT 26/18 A2978 RMK A01 T02570175  RH  061%=      5-min Rain = 0
KLA1 230838Z 10006KT 26/18 A2978 RMK A01 T02560175  RH  061%=      5-min Rain = 0
KLA1 230839Z 10007KT 26/18 A2978 RMK A01 T02560175  RH  061%=      5-min Rain = 0
KLA1 230840Z 11007KT 26/18 A2978 RMK A01 T02560176  RH  061%=      5-min Rain = 0
KLA1 230841Z 10007KT 26/18 A2978 RMK A01 T02560176  RH  061%=      5-min Rain = 0
KLA1 230842Z 10007KT 26/18 A2978 RMK A01 T02560176  RH  061%=      5-min Rain = 0
KLA1 230843Z 10006KT 26/18 A2978 RMK A01 T02560176  RH  061%=      5-min Rain = 0
KLA1 230844Z 10007KT 26/18 A2978 RMK A01 T02560176  RH  062%=      5-min Rain = 0
KLA1 230845Z 11006KT 26/18 A2978 RMK A01 T02550177  RH  062%=      5-min Rain = 0
KLA1 230846Z 10006KT 26/18 A2978 RMK A01 T02550177  RH  062%=      5-min Rain = 0
KLA1 230847Z 10006KT 26/18 A2978 RMK A01 T02550177  RH  062%=      5-min Rain = 0
KLA1 230848Z 10005KT 26/18 A2978 RMK A01 T02550178  RH  062%=      5-min Rain = 0
KLA1 230849Z 09006KT 25/18 A2978 RMK A01 T02540178  RH  063%=      5-min Rain = 0
KLA1 230850Z 09006KT 25/18 A2978 RMK A01 T02540179  RH  063%=      5-min Rain = 0
KLA1 230851Z 09006KT 25/18 A2978 RMK A01 T02540179  RH  063%=      5-min Rain = 0
KLA1 230852Z 10005KT 25/18 A2978 RMK A01 T02540179  RH  063%=      5-min Rain = 0
KLA1 230853Z 10006KT 25/18 A2978 RMK A01 T02540179  RH  063%=      5-min Rain = 0
KLA1 230854Z 10006KT 25/18 A2978 RMK A01 T02540179  RH  063%=      5-min Rain = 0
KLA1 230855Z 09005KT 25/18 A2978 RMK A01 T02530180  RH  064%=      5-min Rain = 0
KLA1 230856Z 09004KT 25/18 A2978 RMK A01 T02540180  RH  064%=      5-min Rain = 0
KLA1 230857Z 09005KT 25/18 A2978 RMK A01 T02540181  RH  064%=      5-min Rain = 0
KLA1 230858Z 08004KT 25/18 A2978 RMK A01 T02530181  RH  064%=      5-min Rain = 0
KLA1 230859Z 10005KT 25/18 A2978 RMK A01 T02530181  RH  064%=      5-min Rain = 0
KLA1 230900Z 09003KT 25/18 A2979 RMK A01 T02520181  RH  065%=      5-min Rain = 0
KLA1 230901Z 08005KT 25/18 A2979 RMK A01 T02520182  RH  065%=      5-min Rain = 0
KLA1 230902Z 10005KT 25/18 A2978 RMK A01 T02520182  RH  065%=      5-min Rain = 0
KLA1 230903Z 10005KT 25/18 A2978 RMK A01 T02510183  RH  066%=      5-min Rain = 0
KLA1 230904Z 10006KT 25/18 A2978 RMK A01 T02510184  RH  066%=      5-min Rain = 0
KLA1 230905Z 10006KT 25/18 A2978 RMK A01 T02510184  RH  066%=      5-min Rain = 0
KLA1 230906Z 11006KT 25/18 A2978 RMK A01 T02520184  RH  066%=      5-min Rain = 0
KLA1 230907Z 11006KT 25/18 A2978 RMK A01 T02520184  RH  066%=      5-min Rain = 0
KLA1 230908Z 11007KT 25/19 A2978 RMK A01 T02520185  RH  066%=      5-min Rain = 0
KLA1 230909Z 11007KT 25/19 A2978 RMK A01 T02520185  RH  066%=      5-min Rain = 0
KLA1 230910Z 11007KT 25/19 A2978 RMK A01 T02520185  RH  066%=      5-min Rain = 0
KLA1 230911Z 10007KT 25/19 A2978 RMK A01 T02520185  RH  066%=      5-min Rain = 0
KLA1 230912Z 11007KT 25/19 A2978 RMK A01 T02520185  RH  067%=      5-min Rain = 0
KLA1 230913Z 11005KT 25/19 A2978 RMK A01 T02520185  RH  067%=      5-min Rain = 0
KLA1 230914Z 10006KT 25/19 A2978 RMK A01 T02510185  RH  067%=      5-min Rain = 0
KLA1 230915Z 11005KT 25/19 A2978 RMK A01 T02510185  RH  067%=      5-min Rain = 0
KLA1 230916Z 11006KT 25/19 A2978 RMK A01 T02510185  RH  067%=      5-min Rain = 0
KLA1 230917Z 12005KT 25/19 A2978 RMK A01 T02500185  RH  067%=      5-min Rain = 0
KLA1 230918Z 12005KT 25/19 A2979 RMK A01 T02500185  RH  067%=      5-min Rain = 0
KLA1 230919Z 11005KT 25/19 A2979 RMK A01 T02490185  RH  067%=      5-min Rain = 0
KLA1 230920Z 11006KT 25/19 A2979 RMK A01 T02490185  RH  068%=      5-min Rain = 0
KLA1 230921Z 11005KT 25/19 A2979 RMK A01 T02480185  RH  068%=      5-min Rain = 0
KLA1 230922Z 11005KT 25/19 A2979 RMK A01 T02480185  RH  068%=      5-min Rain = 0
KLA1 230923Z 11005KT 25/19 A2979 RMK A01 T02480186  RH  068%=      5-min Rain = 0
KLA1 230924Z 11005KT 25/19 A2979 RMK A01 T02480185  RH  068%=      5-min Rain = 0
KLA1 230925Z 11005KT 25/19 A2979 RMK A01 T02470185  RH  068%=      5-min Rain = 0
KLA1 230926Z 11007KT 25/19 A2979 RMK A01 T02470185  RH  069%=      5-min Rain = 0
KLA1 230927Z 11006KT 25/19 A2979 RMK A01 T02460185  RH  069%=      5-min Rain = 0
KLA1 230928Z 10007KT 25/19 A2979 RMK A01 T02470186  RH  069%=      5-min Rain = 0
KLA1 230929Z 11007KT 25/19 A2979 RMK A01 T02470186  RH  069%=      5-min Rain = 0
KLA1 230930Z 11006KT 25/19 A2979 RMK A01 T02480186  RH  068%=      5-min Rain = 0
KLA1 230931Z 11006KT 25/19 A2979 RMK A01 T02480187  RH  069%=      5-min Rain = 0
KLA1 230932Z 11007KT 25/19 A2979 RMK A01 T02480187  RH  069%=      5-min Rain = 0
KLA1 230933Z 10007KT 25/19 A2979 RMK A01 T02480187  RH  069%=      5-min Rain = 0
KLA1 230934Z 11008KT 25/19 A2979 RMK A01 T02480187  RH  069%=      5-min Rain = 0
KLA1 230935Z 11006KT 25/19 A2979 RMK A01 T02480188  RH  069%=      5-min Rain = 0
KLA1 230936Z 10006KT 25/19 A2979 RMK A01 T02480188  RH  069%=      5-min Rain = 0
KLA1 230937Z 11007KT 25/19 A2979 RMK A01 T02480188  RH  069%=      5-min Rain = 0
KLA1 230938Z 11008KT 25/19 A2979 RMK A01 T02480189  RH  070%=      5-min Rain = 0
KLA1 230939Z 11006KT 25/19 A2979 RMK A01 T02470188  RH  070%=      5-min Rain = 0
KLA1 230940Z 11007KT 25/19 A298 RMK A01 T02470189  RH  070%=      5-min Rain = 0
KLA1 230941Z 11006KT 25/19 A298 RMK A01 T02470189  RH  070%=      5-min Rain = 0
KLA1 230942Z 10007KT 25/19 A298 RMK A01 T02470189  RH  070%=      5-min Rain = 0
KLA1 230943Z 11006KT 25/19 A298 RMK A01 T02470189  RH  070%=      5-min Rain = 0
KLA1 230944Z 12006KT 25/19 A298 RMK A01 T02470189  RH  070%=      5-min Rain = 0
KLA1 230945Z 10007KT 25/19 A298 RMK A01 T02470189  RH  070%=      5-min Rain = 0
KLA1 230946Z 10008KT 25/19 A298 RMK A01 T02480189  RH  070%=      5-min Rain = 0
KLA1 230947Z 12007KT 25/19 A298 RMK A01 T02480189  RH  070%=      5-min Rain = 0
KLA1 230948Z 11008KT 25/19 A298 RMK A01 T02480189  RH  070%=      5-min Rain = 0
KLA1 230949Z 11007KT 25/19 A298 RMK A01 T02480190  RH  070%=      5-min Rain = 0
KLA1 230950Z 11009KT 25/19 A298 RMK A01 T02480190  RH  070%=      5-min Rain = 0
KLA1 230951Z 11007KT 25/19 A298 RMK A01 T02480190  RH  070%=      5-min Rain = 0
KLA1 230952Z 11008KT 25/19 A298 RMK A01 T02470189  RH  070%=      5-min Rain = 0
KLA1 230953Z 11008KT 25/19 A298 RMK A01 T02470189  RH  070%=      5-min Rain = 0
KLA1 230954Z 11010KT 25/19 A298 RMK A01 T02470190  RH  070%=      5-min Rain = 0
KLA1 230955Z 11008KT 25/19 A298 RMK A01 T02470189  RH  070%=      5-min Rain = 0
KLA1 230956Z 11008KT 25/19 A298 RMK A01 T02470189  RH  070%=      5-min Rain = 0
KLA1 230957Z 11008KT 25/19 A298 RMK A01 T02470189  RH  070%=      5-min Rain = 0
KLA1 230958Z 11007KT 25/19 A298 RMK A01 T02470189  RH  070%=      5-min Rain = 0
KLA1 230959Z 11008KT 25/19 A298 RMK A01 T02470190  RH  070%=      5-min Rain = 0
KLA1 231000Z 10010KT 25/19 A298 RMK A01 T02470190  RH  071%=      5-min Rain = 0
KLA1 231001Z 11008KT 25/19 A298 RMK A01 T02470190  RH  071%=      5-min Rain = 0
KLA1 231002Z 11008KT 25/19 A298 RMK A01 T02470190  RH  070%=      5-min Rain = 0
KLA1 231003Z 11010KT 25/19 A298 RMK A01 T02470189  RH  070%=      5-min Rain = 0
KLA1 231004Z 10008KT 25/19 A298 RMK A01 T02470190  RH  070%=      5-min Rain = 0
KLA1 231005Z 11008KT 25/19 A298 RMK A01 T02470190  RH  070%=      5-min Rain = 0
KLA1 231006Z 11007KT 25/19 A298 RMK A01 T02470190  RH  071%=      5-min Rain = 0
KLA1 231007Z 10008KT 25/19 A298 RMK A01 T02460190  RH  071%=      5-min Rain = 0
KLA1 231008Z 10010KT 25/19 A298 RMK A01 T02460190  RH  071%=      5-min Rain = 0
KLA1 231009Z 10010KT 25/19 A298 RMK A01 T02460190  RH  071%=      5-min Rain = 0
KLA1 231010Z 11011KT 25/19 A298 RMK A01 T02460190  RH  071%=      5-min Rain = 0
KLA1 231011Z 11010KT 25/19 A298 RMK A01 T02470190  RH  071%=      5-min Rain = 0
KLA1 231012Z 11011KT 25/19 A298 RMK A01 T02470189  RH  070%=      5-min Rain = 0
KLA1 231013Z 11010KT 25/19 A298 RMK A01 T02470189  RH  070%=      5-min Rain = 0
KLA1 231014Z 11009KT 25/19 A298 RMK A01 T02470189  RH  070%=      5-min Rain = 0
KLA1 231015Z 11009KT 25/19 A298 RMK A01 T02470189  RH  070%=      5-min Rain = 0
KLA1 231016Z 11009KT 25/19 A298 RMK A01 T02470189  RH  070%=      5-min Rain = 0
KLA1 231017Z 11009KT 25/19 A298 RMK A01 T02470189  RH  070%=      5-min Rain = 0
KLA1 231018Z 11009KT 25/19 A298 RMK A01 T02470189  RH  070%=      5-min Rain = 0
KLA1 231019Z 11011KT 25/19 A298 RMK A01 T02470189  RH  070%=      5-min Rain = 0
KLA1 231020Z 11010KT 25/19 A298 RMK A01 T02470188  RH  070%=      5-min Rain = 0
KLA1 231021Z 11010KT 25/19 A298 RMK A01 T02470188  RH  070%=      5-min Rain = 0
KLA1 231022Z 11010KT 25/19 A298 RMK A01 T02470188  RH  070%=      5-min Rain = 0
KLA1 231023Z 11009KT 25/19 A298 RMK A01 T02470188  RH  070%=      5-min Rain = 0
KLA1 231024Z 11011KT 25/19 A298 RMK A01 T02470188  RH  070%=      5-min Rain = 0
KLA1 231025Z 11009G14KT 25/19 A298 RMK A01 T02460187  RH  070%=      5-min Rain = 0
KLA1 231026Z 12010KT 25/19 A2981 RMK A01 T02460187  RH  070%=      5-min Rain = 0
KLA1 231027Z 12009KT 25/19 A2981 RMK A01 T02470188  RH  070%=      5-min Rain = 0
KLA1 231028Z 12010KT 25/19 A2981 RMK A01 T02460187  RH  070%=      5-min Rain = 0
KLA1 231029Z 12009KT 25/19 A2981 RMK A01 T02450187  RH  070%=      5-min Rain = 0
KLA1 231030Z 12011KT 25/19 A2981 RMK A01 T02450187  RH  070%=      5-min Rain = 0
KLA1 231031Z 12007KT 25/19 A2981 RMK A01 T02450188  RH  070%=      5-min Rain = 0
KLA1 231032Z 11006KT 25/19 A2981 RMK A01 T02450187  RH  070%=      5-min Rain = 0
KLA1 231033Z 12009KT 25/19 A2981 RMK A01 T02450187  RH  070%=      5-min Rain = 0
KLA1 231034Z 11009KT 24/19 A2981 RMK A01 T02440187  RH  071%=      5-min Rain = 0
KLA1 231035Z 11008KT 24/19 A2981 RMK A01 T02440187  RH  071%=      5-min Rain = 0
KLA1 231036Z 12010KT 24/19 A2981 RMK A01 T02440188  RH  071%=      5-min Rain = 0
KLA1 231037Z 11010KT 24/19 A2981 RMK A01 T02440188  RH  071%=      5-min Rain = 0
KLA1 231038Z 11009KT 25/19 A2981 RMK A01 T02450188  RH  071%=      5-min Rain = 0
KLA1 231039Z 12010KT 24/19 A2981 RMK A01 T02440188  RH  071%=      5-min Rain = 0
KLA1 231040Z 12010KT 24/19 A2981 RMK A01 T02440188  RH  071%=      5-min Rain = 0
KLA1 231041Z 11009KT 24/19 A2981 RMK A01 T02440188  RH  071%=      5-min Rain = 0
KLA1 231042Z 11008KT 24/19 A2981 RMK A01 T02440188  RH  071%=      5-min Rain = 0
KLA1 231043Z 12010KT 24/19 A2981 RMK A01 T02430188  RH  071%=      5-min Rain = 0
KLA1 231044Z 11008KT 24/19 A2981 RMK A01 T02430189  RH  072%=      5-min Rain = 0
KLA1 231045Z 12009KT 24/19 A2981 RMK A01 T02430189  RH  071%=      5-min Rain = 0
KLA1 231046Z 12010KT 24/19 A2981 RMK A01 T02440190  RH  072%=      5-min Rain = 0
KLA1 231047Z 11009KT 24/19 A2981 RMK A01 T02430190  RH  072%=      5-min Rain = 0
KLA1 231048Z 12010KT 24/19 A2981 RMK A01 T02430191  RH  073%=      5-min Rain = 0
KLA1 231049Z 11010KT 24/19 A2981 RMK A01 T02430192  RH  073%=      5-min Rain = 0
KLA1 231050Z 12010KT 24/19 A2981 RMK A01 T02430193  RH  074%=      5-min Rain = 0
KLA1 231051Z 12009KT 24/19 A2981 RMK A01 T02430194  RH  074%=      5-min Rain = 0
KLA1 231052Z 11009KT 24/19 A2981 RMK A01 T02420194  RH  075%=      5-min Rain = 0
KLA1 231053Z 12009KT 24/20 A2981 RMK A01 T02420195  RH  075%=      5-min Rain = 0
KLA1 231054Z 12009KT 24/20 A2981 RMK A01 T02420195  RH  075%=      5-min Rain = 0
KLA1 231055Z 12007KT 24/20 A2981 RMK A01 T02420195  RH  075%=      5-min Rain = 0
KLA1 231056Z 12009KT 24/20 A2981 RMK A01 T02420196  RH  076%=      5-min Rain = 0
KLA1 231057Z 12010KT 24/20 A2981 RMK A01 T02410197  RH  077%=      5-min Rain = 0
KLA1 231058Z 12010KT 24/20 A2981 RMK A01 T02410199  RH  077%=      5-min Rain = 0
KLA1 231059Z 12010G15KT 24/20 A2981 RMK A01 T02410200  RH  078%=      5-min Rain = 0
KLA1 231100Z 12008KT 24/20 A2981 RMK A01 T02410200  RH  078%=      5-min Rain = 0
KLA1 231101Z 11010KT 24/20 A2981 RMK A01 T02410200  RH  078%=      5-min Rain = 0
KLA1 231102Z 11010KT 24/20 A2981 RMK A01 T02410201  RH  078%=      5-min Rain = 0
KLA1 231103Z 12009KT 24/20 A2981 RMK A01 T02410203  RH  079%=      5-min Rain = 0
KLA1 231104Z 12008KT 24/20 A2981 RMK A01 T02410203  RH  079%=      5-min Rain = 0
KLA1 231105Z 12009KT 24/20 A2981 RMK A01 T02410204  RH  080%=      5-min Rain = 0
KLA1 231106Z 12008KT 24/20 A2981 RMK A01 T02410204  RH  080%=      5-min Rain = 0
KLA1 231107Z 12010KT 24/20 A2981 RMK A01 T02400204  RH  080%=      5-min Rain = 0
KLA1 231108Z 12012KT 24/21 A2981 RMK A01 T02400206  RH  081%=      5-min Rain = 0
KLA1 231109Z 12011KT 24/21 A2981 RMK A01 T02410206  RH  081%=      5-min Rain = 0
KLA1 231110Z 13012KT 24/21 A2981 RMK A01 T02410207  RH  081%=      5-min Rain = 0
KLA1 231111Z 12010KT 24/21 A2981 RMK A01 T02410207  RH  081%=      5-min Rain = 0
KLA1 231112Z 13010KT 24/21 A2981 RMK A01 T02410207  RH  081%=      5-min Rain = 0
KLA1 231113Z 13010KT 24/21 A2981 RMK A01 T02410207  RH  081%=      5-min Rain = 0
KLA1 231114Z 12011KT 24/21 A2981 RMK A01 T02400207  RH  082%=      5-min Rain = 0
KLA1 231115Z 13011KT 24/21 A2981 RMK A01 T02400209  RH  083%=      5-min Rain = 0
KLA1 231116Z 13010KT 24/21 A2981 RMK A01 T02400209  RH  083%=      5-min Rain = 0
KLA1 231117Z 13009KT 24/21 A2981 RMK A01 T02400209  RH  083%=      5-min Rain = 0
KLA1 231118Z 13008KT 24/21 A2981 RMK A01 T02410210  RH  083%=      5-min Rain = 0
KLA1 231119Z 13009KT 24/21 A2982 RMK A01 T02410210  RH  083%=      5-min Rain = 0
KLA1 231120Z 13009KT 24/21 A2982 RMK A01 T02410210  RH  083%=      5-min Rain = 0
KLA1 231121Z 13010KT 24/21 A2982 RMK A01 T02410211  RH  084%=      5-min Rain = 0
KLA1 231122Z 13009KT 24/21 A2982 RMK A01 T02410212  RH  084%=      5-min Rain = 0
KLA1 231123Z 13010KT 24/21 A2982 RMK A01 T02410212  RH  084%=      5-min Rain = 0
KLA1 231124Z 13011KT 24/21 A2982 RMK A01 T02410212  RH  084%=      5-min Rain = 0
KLA1 231125Z 14010KT 24/21 A2982 RMK A01 T02410213  RH  084%=      5-min Rain = 0
KLA1 231126Z 13009KT 24/21 A2982 RMK A01 T02420214  RH  084%=      5-min Rain = 0
KLA1 231127Z 13009KT 24/21 A2982 RMK A01 T02430214  RH  084%=      5-min Rain = 0
KLA1 231128Z 13009KT 24/21 A2982 RMK A01 T02420214  RH  084%=      5-min Rain = 0
KLA1 231129Z 13008KT 24/21 A2982 RMK A01 T02430214  RH  084%=      5-min Rain = 0
KLA1 231130Z 13008KT 24/22 A2982 RMK A01 T02430215  RH  084%=      5-min Rain = 0
KLA1 231131Z 13009KT 24/21 A2982 RMK A01 T02430214  RH  084%=      5-min Rain = 0
KLA1 231132Z 14012KT 24/22 A2982 RMK A01 T02430215  RH  084%=      5-min Rain = 0
KLA1 231133Z 13010KT 24/22 A2982 RMK A01 T02430216  RH  085%=      5-min Rain = 0
KLA1 231134Z 13010KT 24/22 A2982 RMK A01 T02430216  RH  085%=      5-min Rain = 0
KLA1 231135Z 14009KT 24/22 A2982 RMK A01 T02440216  RH  085%=      5-min Rain = 0
KLA1 231136Z 14008KT 24/22 A2982 RMK A01 T02430216  RH  085%=      5-min Rain = 0
KLA1 231137Z 14008KT 24/22 A2982 RMK A01 T02440216  RH  085%=      5-min Rain = 0
KLA1 231138Z 14008KT 24/22 A2982 RMK A01 T02440217  RH  085%=      5-min Rain = 0
KLA1 231139Z 14006KT 24/22 A2983 RMK A01 T02440217  RH  085%=      5-min Rain = 0
KLA1 231140Z 14008KT 24/22 A2983 RMK A01 T02440217  RH  085%=      5-min Rain = 0
KLA1 231141Z 14009KT 24/22 A2983 RMK A01 T02440217  RH  085%=      5-min Rain = 0
KLA1 231142Z 14010KT 24/22 A2983 RMK A01 T02440217  RH  085%=      5-min Rain = 0
KLA1 231143Z 14010KT 24/22 A2983 RMK A01 T02440217  RH  085%=      5-min Rain = 0
KLA1 231144Z 14010KT 24/22 A2983 RMK A01 T02440217  RH  085%=      5-min Rain = 0
KLA1 231145Z 13009KT 24/22 A2983 RMK A01 T02440218  RH  085%=      5-min Rain = 0
KLA1 231146Z 13009KT 24/22 A2983 RMK A01 T02440218  RH  085%=      5-min Rain = 0
KLA1 231147Z 14009KT 24/22 A2983 RMK A01 T02440218  RH  085%=      5-min Rain = 0
KLA1 231148Z 15008KT 24/22 A2983 RMK A01 T02440218  RH  085%=      5-min Rain = 0
KLA1 231149Z 14007KT 24/22 A2983 RMK A01 T02440218  RH  085%=      5-min Rain = 0
KLA1 231150Z 13008KT 24/22 A2983 RMK A01 T02440218  RH  085%=      5-min Rain = 0
KLA1 231151Z 14009KT 24/22 A2984 RMK A01 T02440218  RH  086%=      5-min Rain = 0
KLA1 231152Z 13009KT 24/22 A2984 RMK A01 T02440218  RH  086%=      5-min Rain = 0
KLA1 231153Z 13008KT 24/22 A2984 RMK A01 T02440218  RH  086%=      5-min Rain = 0
KLA1 231154Z 14010KT 24/22 A2984 RMK A01 T02440218  RH  085%=      5-min Rain = 0
KLA1 231155Z 14008KT 24/22 A2984 RMK A01 T02440219  RH  086%=      5-min Rain = 0
KLA1 231156Z 13010KT 24/22 A2984 RMK A01 T02440219  RH  086%=      5-min Rain = 0
KLA1 231157Z 14007KT 24/22 A2984 RMK A01 T02440219  RH  086%=      5-min Rain = 0
KLA1 231158Z 14007KT 24/22 A2984 RMK A01 T02440218  RH  085%=      5-min Rain = 0
KLA1 231159Z 13009KT 24/22 A2984 RMK A01 T02440219  RH  085%=      5-min Rain = 0
KLA1 231200Z 14009KT 24/22 A2984 RMK A01 T02440219  RH  086%=      5-min Rain = 0
KLA1 231201Z 14010KT 24/22 A2984 RMK A01 T02440218  RH  086%=      5-min Rain = 0
KLA1 231202Z 13008KT 25/22 A2984 RMK A01 T02450219  RH  086%=      5-min Rain = 0
KLA1 231203Z 14008KT 25/22 A2984 RMK A01 T02450219  RH  085%=      5-min Rain = 0
KLA1 231204Z 14011KT 25/22 A2984 RMK A01 T02450219  RH  085%=      5-min Rain = 0
KLA1 231205Z 14011KT 25/22 A2984 RMK A01 T02450218  RH  085%=      5-min Rain = 0
KLA1 231206Z 14010KT 25/22 A2984 RMK A01 T02450219  RH  085%=      5-min Rain = 0
KLA1 231207Z 14007KT 25/22 A2984 RMK A01 T02450219  RH  085%=      5-min Rain = 0
KLA1 231208Z 15008KT 25/22 A2984 RMK A01 T02450219  RH  085%=      5-min Rain = 0
KLA1 231209Z 14007KT 25/22 A2984 RMK A01 T02450218  RH  085%=      5-min Rain = 0
KLA1 231210Z 15007KT 25/22 A2984 RMK A01 T02450219  RH  085%=      5-min Rain = 0
KLA1 231211Z 14008KT 25/22 A2984 RMK A01 T02450219  RH  085%=      5-min Rain = 0
KLA1 231212Z 15011KT 25/22 A2984 RMK A01 T02450218  RH  085%=      5-min Rain = 0
KLA1 231213Z 15009KT 25/22 A2984 RMK A01 T02450218  RH  085%=      5-min Rain = 0
KLA1 231214Z 15011KT 25/22 A2984 RMK A01 T02450218  RH  085%=      5-min Rain = 0
KLA1 231215Z 15011KT 25/22 A2984 RMK A01 T02450218  RH  085%=      5-min Rain = 0
KLA1 231216Z 15010KT 25/22 A2984 RMK A01 T02460218  RH  085%=      5-min Rain = 0
KLA1 231217Z 15010KT 25/22 A2984 RMK A01 T02450218  RH  085%=      5-min Rain = 0
KLA1 231218Z 14010KT 25/22 A2984 RMK A01 T02450218  RH  084%=      5-min Rain = 0
KLA1 231219Z 15010KT 25/22 A2984 RMK A01 T02450217  RH  084%=      5-min Rain = 0
KLA1 231220Z 14009KT 25/22 A2984 RMK A01 T02450217  RH  084%=      5-min Rain = 0
KLA1 231221Z 14009KT 25/22 A2984 RMK A01 T02450217  RH  084%=      5-min Rain = 0
KLA1 231222Z 15008KT 25/22 A2984 RMK A01 T02450217  RH  084%=      5-min Rain = 0
KLA1 231223Z 13009KT 25/22 A2984 RMK A01 T02460218  RH  085%=      5-min Rain = 0
KLA1 231224Z 13007KT 25/22 A2985 RMK A01 T02450217  RH  084%=      5-min Rain = 0
KLA1 231225Z 13008KT 25/22 A2985 RMK A01 T02460218  RH  084%=      5-min Rain = 0
KLA1 231226Z 13010KT 25/22 A2985 RMK A01 T02450217  RH  084%=      5-min Rain = 0
KLA1 231227Z 13010KT 25/22 A2985 RMK A01 T02450217  RH  084%=      5-min Rain = 0
KLA1 231228Z 13007KT 25/22 A2985 RMK A01 T02450216  RH  084%=      5-min Rain = 0
KLA1 231229Z 12008KT 25/22 A2985 RMK A01 T02450216  RH  084%=      5-min Rain = 0
KLA1 231230Z 12008KT 25/22 A2985 RMK A01 T02460217  RH  084%=      5-min Rain = 0
KLA1 231231Z 13010KT 25/22 A2985 RMK A01 T02460217  RH  084%=      5-min Rain = 0
KLA1 231232Z 13008KT 25/22 A2985 RMK A01 T02460217  RH  084%=      5-min Rain = 0
KLA1 231233Z 13008KT 25/22 A2985 RMK A01 T02460217  RH  084%=      5-min Rain = 0
KLA1 231234Z 12009KT 25/22 A2985 RMK A01 T02460217  RH  084%=      5-min Rain = 0
KLA1 231235Z 13007KT 25/22 A2985 RMK A01 T02460216  RH  084%=      5-min Rain = 0
KLA1 231236Z 12008KT 25/22 A2985 RMK A01 T02460217  RH  084%=      5-min Rain = 0
KLA1 231237Z 14008KT 25/22 A2985 RMK A01 T02460217  RH  084%=      5-min Rain = 0
KLA1 231238Z 13008KT 25/22 A2985 RMK A01 T02460217  RH  084%=      5-min Rain = 0
KLA1 231239Z 13009KT 25/22 A2985 RMK A01 T02460217  RH  084%=      5-min Rain = 0
KLA1 231240Z 13009KT 25/22 A2985 RMK A01 T02460217  RH  084%=      5-min Rain = 0
KLA1 231241Z 13010KT 25/22 A2985 RMK A01 T02460216  RH  084%=      5-min Rain = 0
KLA1 231242Z 13009KT 25/22 A2985 RMK A01 T02470217  RH  083%=      5-min Rain = 0
KLA1 231243Z 13010KT 25/22 A2985 RMK A01 T02460216  RH  083%=      5-min Rain = 0
KLA1 231244Z 14011KT 25/22 A2985 RMK A01 T02470216  RH  083%=      5-min Rain = 0
KLA1 231245Z 13011KT 25/22 A2985 RMK A01 T02470216  RH  083%=      5-min Rain = 0
KLA1 231246Z 14010KT 25/22 A2985 RMK A01 T02470216  RH  083%=      5-min Rain = 0
KLA1 231247Z 14010KT 25/22 A2985 RMK A01 T02470216  RH  083%=      5-min Rain = 0
KLA1 231248Z 14010KT 25/22 A2985 RMK A01 T02470216  RH  083%=      5-min Rain = 0
KLA1 231249Z 14012KT 25/22 A2985 RMK A01 T02480216  RH  083%=      5-min Rain = 0
KLA1 231250Z 14014KT 25/22 A2985 RMK A01 T02470216  RH  083%=      5-min Rain = 0
KLA1 231251Z 15010KT 25/22 A2985 RMK A01 T02480216  RH  083%=      5-min Rain = 0
KLA1 231252Z 14009KT 25/22 A2985 RMK A01 T02470216  RH  083%=      5-min Rain = 0
KLA1 231253Z 13010KT 25/22 A2985 RMK A01 T02480216  RH  082%=      5-min Rain = 0
KLA1 231254Z 14009KT 25/22 A2985 RMK A01 T02480216  RH  082%=      5-min Rain = 0
KLA1 231255Z 14013KT 25/22 A2985 RMK A01 T02490216  RH  082%=      5-min Rain = 0
KLA1 231256Z 14012KT 25/22 A2985 RMK A01 T02490216  RH  082%=      5-min Rain = 0
KLA1 231257Z 14009KT 25/22 A2986 RMK A01 T02480216  RH  082%=      5-min Rain = 0
KLA1 231258Z 14009KT 25/22 A2986 RMK A01 T02480216  RH  082%=      5-min Rain = 0
KLA1 231259Z 14008KT 25/22 A2986 RMK A01 T02490216  RH  082%=      5-min Rain = 0
KLA1 231300Z 13009KT 25/22 A2985 RMK A01 T02480216  RH  082%=      5-min Rain = 0
KLA1 231301Z 14012KT 25/22 A2986 RMK A01 T02480216  RH  082%=      5-min Rain = 0
KLA1 231302Z 14012KT 25/22 A2986 RMK A01 T02490216  RH  082%=      5-min Rain = 0
KLA1 231303Z 13010KT 25/22 A2985 RMK A01 T02490216  RH  082%=      5-min Rain = 0
KLA1 231304Z 15011KT 25/22 A2985 RMK A01 T02490216  RH  082%=      5-min Rain = 0
KLA1 231305Z 14009G15KT 25/22 A2986 RMK A01 T02490216  RH  082%=      5-min Rain = 0
KLA1 231306Z 13012G17KT 25/22 A2985 RMK A01 T02500216  RH  081%=      5-min Rain = 0
KLA1 231307Z 13012KT 25/22 A2986 RMK A01 T02500216  RH  081%=      5-min Rain = 0
KLA1 231308Z 13011KT 25/22 A2986 RMK A01 T02510216  RH  081%=      5-min Rain = 0
KLA1 231309Z 14013KT 25/22 A2986 RMK A01 T02510216  RH  081%=      5-min Rain = 0
KLA1 231310Z 14013KT 25/22 A2986 RMK A01 T02510216  RH  081%=      5-min Rain = 0
KLA1 231311Z 14011KT 25/22 A2986 RMK A01 T02510215  RH  081%=      5-min Rain = 0
KLA1 231312Z 14014KT 25/22 A2986 RMK A01 T02520216  RH  080%=      5-min Rain = 0
KLA1 231313Z 14012KT 25/22 A2986 RMK A01 T02520215  RH  080%=      5-min Rain = 0
KLA1 231314Z 15010KT 25/22 A2986 RMK A01 T02520216  RH  080%=      5-min Rain = 0
KLA1 231315Z 15009KT 25/22 A2986 RMK A01 T02530215  RH  080%=      5-min Rain = 0
KLA1 231316Z 14010KT 25/22 A2986 RMK A01 T02540216  RH  079%=      5-min Rain = 0
KLA1 231317Z 15011KT 26/22 A2986 RMK A01 T02560215  RH  078%=      5-min Rain = 0
KLA1 231318Z 15014KT 26/21 A2986 RMK A01 T02560214  RH  078%=      5-min Rain = 0
KLA1 231319Z 14014KT 26/22 A2986 RMK A01 T02560215  RH  078%=      5-min Rain = 0
KLA1 231320Z 14014KT 26/22 A2986 RMK A01 T02560215  RH  078%=      5-min Rain = 0
KLA1 231321Z 14011KT 26/21 A2986 RMK A01 T02560214  RH  078%=      5-min Rain = 0
KLA1 231322Z 15010KT 26/21 A2987 RMK A01 T02550214  RH  078%=      5-min Rain = 0
KLA1 231323Z 15011KT 26/21 A2986 RMK A01 T02550214  RH  078%=      5-min Rain = 0
KLA1 231324Z 15010KT 26/21 A2986 RMK A01 T02550214  RH  078%=      5-min Rain = 0
KLA1 231325Z 15010KT 26/21 A2986 RMK A01 T02550214  RH  078%=      5-min Rain = 0
KLA1 231326Z 15008KT 26/21 A2986 RMK A01 T02550214  RH  078%=      5-min Rain = 0
KLA1 231327Z 14010KT 26/21 A2986 RMK A01 T02560214  RH  078%=      5-min Rain = 0
KLA1 231328Z 15011KT 26/21 A2986 RMK A01 T02560214  RH  077%=      5-min Rain = 0
KLA1 231329Z 15012KT 26/21 A2986 RMK A01 T02560212  RH  077%=      5-min Rain = 0
KLA1 231330Z 15014KT 26/21 A2986 RMK A01 T02560212  RH  077%=      5-min Rain = 0
KLA1 231331Z 16011KT 26/21 A2986 RMK A01 T02560212  RH  076%=      5-min Rain = 0
KLA1 231332Z 14014KT 26/21 A2986 RMK A01 T02560212  RH  076%=      5-min Rain = 0
KLA1 231333Z 14013G18KT 26/21 A2986 RMK A01 T02570212  RH  076%=      5-min Rain = 0
KLA1 231334Z 14014G19KT 26/21 A2986 RMK A01 T02570212  RH  076%=      5-min Rain = 0
KLA1 231335Z 14014KT 26/21 A2986 RMK A01 T02570212  RH  076%=      5-min Rain = 0
KLA1 231336Z 14012KT 26/21 A2986 RMK A01 T02560212  RH  076%=      5-min Rain = 0
KLA1 231337Z 15008KT 26/21 A2986 RMK A01 T02560212  RH  077%=      5-min Rain = 0
KLA1 231338Z 13011KT 26/21 A2986 RMK A01 T02570212  RH  076%=      5-min Rain = 0
KLA1 231339Z 14011KT 26/21 A2986 RMK A01 T02580212  RH  076%=      5-min Rain = 0
KLA1 231340Z 14011KT 26/21 A2986 RMK A01 T02580212  RH  076%=      5-min Rain = 0
KLA1 231341Z 14013KT 26/21 A2987 RMK A01 T02580211  RH  075%=      5-min Rain = 0
KLA1 231342Z 14014KT 26/21 A2987 RMK A01 T02590211  RH  075%=      5-min Rain = 0
KLA1 231343Z 14016G21KT 26/21 A2987 RMK A01 T02590210  RH  074%=      5-min Rain = 0
KLA1 231344Z 14017KT 26/21 A2987 RMK A01 T02590210  RH  074%=      5-min Rain = 0
KLA1 231345Z 15013KT 26/21 A2987 RMK A01 T02590210  RH  075%=      5-min Rain = 0
KLA1 231346Z 15011G17KT 26/21 A2987 RMK A01 T02590211  RH  075%=      5-min Rain = 0
KLA1 231347Z 15013G19KT 26/21 A2987 RMK A01 T02590210  RH  075%=      5-min Rain = 0
KLA1 231348Z 16012KT 26/21 A2987 RMK A01 T02580210  RH  074%=      5-min Rain = 0
KLA1 231349Z 16011KT 26/21 A2987 RMK A01 T02580210  RH  075%=      5-min Rain = 0
KLA1 231350Z 16011KT 26/21 A2987 RMK A01 T02580210  RH  075%=      5-min Rain = 0
KLA1 231351Z 15008KT 26/21 A2987 RMK A01 T02580210  RH  075%=      5-min Rain = 0
KLA1 231352Z 15009KT 26/21 A2987 RMK A01 T02580210  RH  075%=      5-min Rain = 0
KLA1 231353Z 15008KT 26/21 A2987 RMK A01 T02590210  RH  074%=      5-min Rain = 0
KLA1 231354Z 16007KT 26/21 A2987 RMK A01 T02610211  RH  074%=      5-min Rain = 0
KLA1 231355Z 15009KT 26/21 A2987 RMK A01 T02620211  RH  074%=      5-min Rain = 0
KLA1 231356Z 15009KT 26/21 A2987 RMK A01 T02630211  RH  073%=      5-min Rain = 0
KLA1 231357Z 13011KT 26/21 A2987 RMK A01 T02630211  RH  073%=      5-min Rain = 0
KLA1 231358Z 13014KT 26/21 A2987 RMK A01 T02630211  RH  073%=      5-min Rain = 0
KLA1 231359Z 13013G18KT 26/21 A2987 RMK A01 T02620211  RH  073%=      5-min Rain = 0
KLA1 231400Z 15012KT 26/21 A2987 RMK A01 T02620211  RH  073%=      5-min Rain = 0
KLA1 231401Z 14010KT 26/21 A2987 RMK A01 T02630212  RH  073%=      5-min Rain = 0
KLA1 231402Z 14012KT 27/21 A2988 RMK A01 T02650211  RH  072%=      5-min Rain = 0
KLA1 231403Z 14012KT 27/21 A2988 RMK A01 T02660210  RH  072%=      5-min Rain = 0
KLA1 231404Z 14012KT 27/21 A2988 RMK A01 T02650210  RH  072%=      5-min Rain = 0
KLA1 231405Z 13012KT 27/21 A2988 RMK A01 T02650209  RH  072%=      5-min Rain = 0
KLA1 231406Z 14013KT 27/21 A2988 RMK A01 T02650210  RH  072%=      5-min Rain = 0
KLA1 231407Z 14013KT 27/21 A2988 RMK A01 T02650210  RH  072%=      5-min Rain = 0
KLA1 231408Z 15012KT 27/21 A2988 RMK A01 T02660210  RH  071%=      5-min Rain = 0
KLA1 231409Z 15010KT 27/21 A2988 RMK A01 T02670211  RH  071%=      5-min Rain = 0
KLA1 231410Z 15010KT 27/21 A2988 RMK A01 T02690211  RH  071%=      5-min Rain = 0
KLA1 231411Z 13010G15KT 27/21 A2988 RMK A01 T02700211  RH  070%=      5-min Rain = 0
KLA1 231412Z 14015KT 27/21 A2988 RMK A01 T02710210  RH  069%=      5-min Rain = 0
KLA1 231413Z 14012KT 27/21 A2988 RMK A01 T02700210  RH  070%=      5-min Rain = 0
KLA1 231414Z 14013KT 27/21 A2988 RMK A01 T02700210  RH  070%=      5-min Rain = 0
KLA1 231415Z 14014KT 27/21 A2988 RMK A01 T02700209  RH  069%=      5-min Rain = 0
KLA1 231416Z 14012KT 27/21 A2987 RMK A01 T02690209  RH  070%=      5-min Rain = 0
KLA1 231417Z 14013KT 27/21 A2987 RMK A01 T02690210  RH  070%=      5-min Rain = 0
KLA1 231418Z 13015KT 27/21 A2988 RMK A01 T02690209  RH  070%=      5-min Rain = 0
KLA1 231419Z 14013KT 27/21 A2988 RMK A01 T02690209  RH  070%=      5-min Rain = 0
KLA1 231420Z 13008KT 27/21 A2988 RMK A01 T02680209  RH  070%=      5-min Rain = 0
KLA1 231421Z 13008KT 27/21 A2988 RMK A01 T02680209  RH  070%=      5-min Rain = 0
KLA1 231422Z 14010G15KT 27/21 A2988 RMK A01 T02710209  RH  069%=      5-min Rain = 0
KLA1 231423Z 14011KT 27/21 A2988 RMK A01 T02730208  RH  067%=      5-min Rain = 0
KLA1 231424Z 14011KT 27/21 A2988 RMK A01 T02740208  RH  067%=      5-min Rain = 0
KLA1 231425Z 14012KT 28/21 A2988 RMK A01 T02750208  RH  067%=      5-min Rain = 0
KLA1 231426Z 13011KT 27/21 A2988 RMK A01 T02740209  RH  067%=      5-min Rain = 0
KLA1 231427Z 13011KT 27/21 A2988 RMK A01 T02740209  RH  068%=      5-min Rain = 0
KLA1 231428Z 13014KT 27/21 A2988 RMK A01 T02730209  RH  068%=      5-min Rain = 0
KLA1 231429Z 13011KT 27/21 A2988 RMK A01 T02720209  RH  068%=      5-min Rain = 0
KLA1 231430Z 15007G12KT 27/21 A2988 RMK A01 T02720209  RH  068%=      5-min Rain = 0
KLA1 231431Z 15011G16KT 27/21 A2988 RMK A01 T02740207  RH  067%=      5-min Rain = 0
KLA1 231432Z 15012KT 28/21 A2988 RMK A01 T02750207  RH  067%=      5-min Rain = 0
KLA1 231433Z 14009G14KT 28/21 A2988 RMK A01 T02770207  RH  066%=      5-min Rain = 0
KLA1 231434Z 15013KT 28/21 A2988 RMK A01 T02790206  RH  065%=      5-min Rain = 0
KLA1 231435Z 16010KT 28/21 A2988 RMK A01 T02790206  RH  064%=      5-min Rain = 0
KLA1 231436Z 16013KT 28/21 A2988 RMK A01 T02800207  RH  064%=      5-min Rain = 0
KLA1 231437Z 14012KT 28/21 A2988 RMK A01 T02810207  RH  064%=      5-min Rain = 0
KLA1 231438Z 13009KT 28/21 A2988 RMK A01 T02810209  RH  065%=      5-min Rain = 0
KLA1 231439Z 16013KT 28/21 A2988 RMK A01 T02790208  RH  065%=      5-min Rain = 0
KLA1 231440Z 17011KT 28/21 A2988 RMK A01 T02770208  RH  066%=      5-min Rain = 0
KLA1 231441Z 17011KT 28/21 A2988 RMK A01 T02760208  RH  067%=      5-min Rain = 0
KLA1 231442Z 16010KT 28/21 A2988 RMK A01 T02760208  RH  066%=      5-min Rain = 0
KLA1 231443Z 16008KT 28/21 A2988 RMK A01 T02770208  RH  066%=      5-min Rain = 0
KLA1 231444Z 15009KT 28/21 A2988 RMK A01 T02780208  RH  066%=      5-min Rain = 0
KLA1 231445Z 17012KT 28/21 A2988 RMK A01 T02790209  RH  066%=      5-min Rain = 0
KLA1 231446Z 16011KT 28/21 A2988 RMK A01 T02800209  RH  066%=      5-min Rain = 0
KLA1 231447Z 16010KT 28/21 A2988 RMK A01 T02780209  RH  066%=      5-min Rain = 0
KLA1 231448Z 16012KT 28/21 A2988 RMK A01 T02790209  RH  066%=      5-min Rain = 0
KLA1 231449Z 16012KT 28/21 A2988 RMK A01 T02810208  RH  065%=      5-min Rain = 0
KLA1 231450Z 16012KT 28/21 A2988 RMK A01 T02810208  RH  065%=      5-min Rain = 0
KLA1 231451Z 17012KT 28/21 A2988 RMK A01 T02810209  RH  065%=      5-min Rain = 0
KLA1 231452Z 17013KT 28/21 A2988 RMK A01 T02790209  RH  065%=      5-min Rain = 0
KLA1 231453Z 16012KT 28/21 A2988 RMK A01 T02780209  RH  066%=      5-min Rain = 0
KLA1 231454Z 15009KT 28/21 A2988 RMK A01 T02760209  RH  067%=      5-min Rain = 0
KLA1 231455Z 15008KT 28/21 A2988 RMK A01 T02760210  RH  067%=      5-min Rain = 0
KLA1 231456Z 16010KT 28/21 A2988 RMK A01 T02770209  RH  066%=      5-min Rain = 0
KLA1 231457Z 16012KT 28/21 A2988 RMK A01 T02770209  RH  067%=      5-min Rain = 0
KLA1 231458Z 16010KT 28/21 A2988 RMK A01 T02750208  RH  067%=      5-min Rain = 0
KLA1 231459Z 16014KT 28/21 A2988 RMK A01 T02750208  RH  067%=      5-min Rain = 0
KLA1 231500Z 17012KT 28/21 A2988 RMK A01 T02750208  RH  067%=      5-min Rain = 0
KLA1 231501Z 17013KT 28/21 A2988 RMK A01 T02750208  RH  067%=      5-min Rain = 0
KLA1 231502Z 17013KT 28/21 A2988 RMK A01 T02760208  RH  067%=      5-min Rain = 0
KLA1 231503Z 16011KT 28/21 A2988 RMK A01 T02760207  RH  066%=      5-min Rain = 0
KLA1 231504Z 16014KT 28/21 A2988 RMK A01 T02780208  RH  066%=      5-min Rain = 0
KLA1 231505Z 16011KT 28/21 A2988 RMK A01 T02790209  RH  066%=      5-min Rain = 0
KLA1 231506Z 15013KT 28/21 A2988 RMK A01 T02800209  RH  065%=      5-min Rain = 0
KLA1 231507Z 15010KT 28/21 A2988 RMK A01 T02800209  RH  065%=      5-min Rain = 0
KLA1 231508Z 15007G14KT 28/21 A2988 RMK A01 T02810208  RH  065%=      5-min Rain = 0
KLA1 231509Z 15011KT 28/21 A2988 RMK A01 T02810209  RH  065%=      5-min Rain = 0
KLA1 231510Z 13013KT 28/21 A2988 RMK A01 T02810209  RH  065%=      5-min Rain = 0
KLA1 231511Z 15014KT 28/21 A2988 RMK A01 T02810209  RH  065%=      5-min Rain = 0
KLA1 231512Z 15012KT 28/21 A2988 RMK A01 T02800209  RH  065%=      5-min Rain = 0
KLA1 231513Z 14011G16KT 28/21 A2988 RMK A01 T02810210  RH  065%=      5-min Rain = 0
KLA1 231514Z 15013KT 28/21 A2988 RMK A01 T02820210  RH  065%=      5-min Rain = 0
KLA1 231515Z 15013KT 28/21 A2988 RMK A01 T02810209  RH  065%=      5-min Rain = 0
KLA1 231516Z 14012KT 28/21 A2988 RMK A01 T02780209  RH  066%=      5-min Rain = 0
KLA1 231517Z 15009KT 28/21 A2988 RMK A01 T02780210  RH  066%=      5-min Rain = 0
KLA1 231518Z 16011KT 28/21 A2988 RMK A01 T02780209  RH  066%=      5-min Rain = 0
KLA1 231519Z 16010KT 28/21 A2988 RMK A01 T02770209  RH  066%=      5-min Rain = 0
KLA1 231520Z 15010KT 28/21 A2988 RMK A01 T02800208  RH  065%=      5-min Rain = 0
KLA1 231521Z 14012KT 28/21 A2988 RMK A01 T02830210  RH  064%=      5-min Rain = 0
KLA1 231522Z 14011KT 28/21 A2988 RMK A01 T02840210  RH  064%=      5-min Rain = 0
KLA1 231523Z 14010KT 28/21 A2988 RMK A01 T02830210  RH  065%=      5-min Rain = 0
KLA1 231524Z 13010KT 28/21 A2988 RMK A01 T02830211  RH  065%=      5-min Rain = 0
KLA1 231525Z 13014KT 29/21 A2988 RMK A01 T02850211  RH  064%=      5-min Rain = 0
KLA1 231526Z 14013KT 28/21 A2988 RMK A01 T02840210  RH  064%=      5-min Rain = 0
KLA1 231527Z 14010KT 29/21 A2988 RMK A01 T02850210  RH  064%=      5-min Rain = 0
KLA1 231528Z 15011KT 29/21 A2988 RMK A01 T02870211  RH  063%=      5-min Rain = 0
KLA1 231529Z 15012KT 29/21 A2988 RMK A01 T02870210  RH  063%=      5-min Rain = 0
KLA1 231530Z 15013KT 29/21 A2988 RMK A01 T02850210  RH  064%=      5-min Rain = 0
KLA1 231531Z 14012KT 28/21 A2988 RMK A01 T02820210  RH  065%=      5-min Rain = 0
KLA1 231532Z 14011KT 28/21 A2988 RMK A01 T02810211  RH  066%=      5-min Rain = 0
KLA1 231533Z 14012KT 28/21 A2988 RMK A01 T02810210  RH  065%=      5-min Rain = 0
KLA1 231534Z 15009KT 28/21 A2988 RMK A01 T02800210  RH  066%=      5-min Rain = 0
KLA1 231535Z 14011KT 28/21 A2988 RMK A01 T02800210  RH  066%=      5-min Rain = 0
KLA1 231536Z 15011KT 28/21 A2988 RMK A01 T02800210  RH  066%=      5-min Rain = 0
KLA1 231537Z 16013KT 28/21 A2988 RMK A01 T02800210  RH  065%=      5-min Rain = 0
KLA1 231538Z 15014KT 28/21 A2988 RMK A01 T02820210  RH  065%=      5-min Rain = 0
KLA1 231539Z 15011G16KT 28/21 A2988 RMK A01 T02840210  RH  064%=      5-min Rain = 0
KLA1 231540Z 15013G19KT 29/21 A2988 RMK A01 T02860210  RH  063%=      5-min Rain = 0
KLA1 231541Z 14014KT 29/21 A2988 RMK A01 T02860210  RH  064%=      5-min Rain = 0
KLA1 231542Z 14014KT 29/21 A2988 RMK A01 T02850211  RH  064%=      5-min Rain = 0
KLA1 231543Z 13013KT 28/21 A2988 RMK A01 T02840211  RH  065%=      5-min Rain = 0
KLA1 231544Z 14012KT 28/21 A2988 RMK A01 T02830211  RH  065%=      5-min Rain = 0
KLA1 231545Z 14010KT 28/21 A2988 RMK A01 T02830210  RH  065%=      5-min Rain = 0
KLA1 231546Z 16010KT 28/21 A2988 RMK A01 T02840211  RH  065%=      5-min Rain = 0
KLA1 231547Z 15010KT 28/21 A2988 RMK A01 T02840210  RH  064%=      5-min Rain = 0
KLA1 231548Z 15012KT 28/21 A2988 RMK A01 T02840210  RH  064%=      5-min Rain = 0
KLA1 231549Z 15011KT 28/21 A2988 RMK A01 T02840211  RH  065%=      5-min Rain = 0
KLA1 231550Z 15011KT 28/21 A2988 RMK A01 T02840212  RH  065%=      5-min Rain = 0
KLA1 231551Z 14012KT 28/21 A2988 RMK A01 T02830212  RH  065%=      5-min Rain = 0
KLA1 231552Z 15009KT 28/21 A2988 RMK A01 T02820211  RH  065%=      5-min Rain = 0
KLA1 231553Z 15008KT 28/21 A2988 RMK A01 T02810211  RH  066%=      5-min Rain = 0
KLA1 231554Z 14007KT 28/21 A2988 RMK A01 T02820211  RH  065%=      5-min Rain = 0
KLA1 231555Z 12011KT 28/21 A2988 RMK A01 T02840212  RH  065%=      5-min Rain = 0
KLA1 231556Z 13010KT 29/21 A2988 RMK A01 T02850212  RH  065%=      5-min Rain = 0
KLA1 231557Z 12010KT 28/21 A2988 RMK A01 T02840213  RH  065%=      5-min Rain = 0
KLA1 231558Z 15012KT 28/21 A2988 RMK A01 T02830212  RH  065%=      5-min Rain = 0
KLA1 231559Z 15012KT 28/21 A2988 RMK A01 T02840212  RH  065%=      5-min Rain = 0
KLA1 231600Z 15009KT 28/21 A2988 RMK A01 T02840213  RH  065%=      5-min Rain = 0
KLA1 231601Z 16012KT 29/21 A2988 RMK A01 T02870214  RH  065%=      5-min Rain = 0
KLA1 231602Z 13011KT 29/21 A2988 RMK A01 T02900214  RH  064%=      5-min Rain = 0
KLA1 231603Z 15011KT 29/21 A2988 RMK A01 T02890214  RH  064%=      5-min Rain = 0
KLA1 231604Z 14012KT 29/22 A2988 RMK A01 T02880215  RH  064%=      5-min Rain = 0
KLA1 231605Z 15012KT 29/21 A2988 RMK A01 T02880214  RH  064%=      5-min Rain = 0
KLA1 231606Z 14013KT 29/22 A2988 RMK A01 T02870215  RH  065%=      5-min Rain = 0
KLA1 231607Z 14012KT 29/22 A2988 RMK A01 T02870215  RH  065%=      5-min Rain = 0
KLA1 231608Z 13012KT 29/22 A2988 RMK A01 T02880215  RH  065%=      5-min Rain = 0
KLA1 231609Z 14011KT 29/22 A2988 RMK A01 T02870215  RH  065%=      5-min Rain = 0
KLA1 231610Z 15011KT 29/21 A2988 RMK A01 T02870214  RH  065%=      5-min Rain = 0
KLA1 231611Z 15015KT 29/21 A2988 RMK A01 T02870214  RH  065%=      5-min Rain = 0
KLA1 231612Z 14013KT 29/21 A2988 RMK A01 T02870214  RH  065%=      5-min Rain = 0
KLA1 231613Z 16010KT 29/21 A2988 RMK A01 T02860214  RH  065%=      5-min Rain = 0
KLA1 231614Z 16012KT 29/21 A2988 RMK A01 T02850214  RH  065%=      5-min Rain = 0
KLA1 231615Z 15009KT 29/21 A2988 RMK A01 T02860214  RH  065%=      5-min Rain = 0
KLA1 231616Z 13010KT 29/21 A2988 RMK A01 T02880214  RH  064%=      5-min Rain = 0
KLA1 231617Z 13012KT 29/21 A2988 RMK A01 T02880213  RH  064%=      5-min Rain = 0
KLA1 231618Z 14011G16KT 29/21 A2988 RMK A01 T02890213  RH  063%=      5-min Rain = 0
KLA1 231619Z 15013KT 29/21 A2988 RMK A01 T02890212  RH  063%=      5-min Rain = 0
KLA1 231620Z 16014KT 29/21 A2988 RMK A01 T02880211  RH  063%=      5-min Rain = 0
KLA1 231621Z 17013KT 29/21 A2988 RMK A01 T02880210  RH  063%=      5-min Rain = 0
KLA1 231622Z 16010KT 29/21 A2988 RMK A01 T02860211  RH  064%=      5-min Rain = 0
KLA1 231623Z 16014KT 29/21 A2988 RMK A01 T02860211  RH  064%=      5-min Rain = 0
KLA1 231624Z 16013G18KT 29/21 A2988 RMK A01 T02860211  RH  064%=      5-min Rain = 0
KLA1 231625Z 14016KT 29/21 A2988 RMK A01 T02860211  RH  064%=      5-min Rain = 0
KLA1 231626Z 14012KT 29/21 A2988 RMK A01 T02860211  RH  064%=      5-min Rain = 0
KLA1 231627Z 16010KT 29/21 A2988 RMK A01 T02850211  RH  064%=      5-min Rain = 0
KLA1 231628Z 17012G18KT 29/21 A2988 RMK A01 T02860211  RH  064%=      5-min Rain = 0
KLA1 231629Z 16013G18KT 29/21 A2988 RMK A01 T02870211  RH  063%=      5-min Rain = 0
KLA1 231630Z 15012KT 29/21 A2988 RMK A01 T02880211  RH  063%=      5-min Rain = 0
KLA1 231631Z 15011KT 29/21 A2988 RMK A01 T02880211  RH  063%=      5-min Rain = 0
KLA1 231632Z 15013G18KT 29/21 A2988 RMK A01 T02890210  RH  062%=      5-min Rain = 0
KLA1 231633Z 15012KT 29/21 A2987 RMK A01 T02910209  RH  061%=      5-min Rain = 0
KLA1 231634Z 15015KT 29/21 A2988 RMK A01 T02910212  RH  062%=      5-min Rain = 0
KLA1 231635Z 15017KT 29/21 A2988 RMK A01 T02930212  RH  062%=      5-min Rain = 0
KLA1 231636Z 15014KT 29/21 A2988 RMK A01 T02920211  RH  061%=      5-min Rain = 0
KLA1 231637Z 13011KT 29/21 A2988 RMK A01 T02910211  RH  062%=      5-min Rain = 0
KLA1 231638Z 13013KT 29/21 A2988 RMK A01 T02920210  RH  062%=      5-min Rain = 0
KLA1 231639Z 13011KT 29/21 A2988 RMK A01 T02920210  RH  061%=      5-min Rain = 0
KLA1 231640Z 14012KT 29/21 A2988 RMK A01 T02910211  RH  062%=      5-min Rain = 0
KLA1 231641Z 12012KT 29/21 A2988 RMK A01 T02910211  RH  062%=      5-min Rain = 0
KLA1 231642Z 14013KT 29/21 A2988 RMK A01 T02910211  RH  062%=      5-min Rain = 0
KLA1 231643Z 15013KT 29/21 A2988 RMK A01 T02910210  RH  062%=      5-min Rain = 0
KLA1 231644Z 14016KT 29/21 A2988 RMK A01 T02900210  RH  062%=      5-min Rain = 0
KLA1 231645Z 14013KT 29/21 A2988 RMK A01 T02920212  RH  062%=      5-min Rain = 0
KLA1 231646Z 16013KT 30/21 A2988 RMK A01 T02950212  RH  061%=      5-min Rain = 0
KLA1 231647Z 16011KT 30/21 A2988 RMK A01 T02950212  RH  061%=      5-min Rain = 0
KLA1 231648Z 15014KT 30/21 A2988 RMK A01 T02960212  RH  061%=      5-min Rain = 0
KLA1 231649Z 14012KT 30/21 A2988 RMK A01 T02960212  RH  061%=      5-min Rain = 0
KLA1 231650Z 14012KT 29/21 A2988 RMK A01 T02940211  RH  061%=      5-min Rain = 0
KLA1 231651Z 13014KT 29/21 A2988 RMK A01 T02940211  RH  061%=      5-min Rain = 0
KLA1 231652Z 13016KT 29/21 A2988 RMK A01 T02940210  RH  061%=      5-min Rain = 0
KLA1 231653Z 15014KT 30/21 A2988 RMK A01 T02950211  RH  061%=      5-min Rain = 0
KLA1 231654Z 15014KT 30/21 A2988 RMK A01 T02980210  RH  059%=      5-min Rain = 0
KLA1 231655Z 15012KT 30/21 A2988 RMK A01 T02990208  RH  058%=      5-min Rain = 0
KLA1 231656Z 16011KT 30/21 A2987 RMK A01 T02990210  RH  059%=      5-min Rain = 0
KLA1 231657Z 15014KT 30/21 A2988 RMK A01 T03010211  RH  059%=      5-min Rain = 0
KLA1 231658Z 15014KT 30/21 A2988 RMK A01 T03020212  RH  058%=      5-min Rain = 0
KLA1 231659Z 16009KT 30/21 A2988 RMK A01 T02990211  RH  059%=      5-min Rain = 0
KLA1 231700Z 16013KT 30/21 A2987 RMK A01 T02990210  RH  059%=      5-min Rain = 0
KLA1 231701Z 15013KT 30/21 A2988 RMK A01 T02980210  RH  059%=      5-min Rain = 0
KLA1 231702Z 15013KT 30/21 A2988 RMK A01 T02970210  RH  060%=      5-min Rain = 0
KLA1 231703Z 15010KT 30/21 A2988 RMK A01 T02960211  RH  060%=      5-min Rain = 0
KLA1 231704Z 14015KT 30/21 A2988 RMK A01 T02970211  RH  060%=      5-min Rain = 0
KLA1 231705Z 12012KT 30/21 A2988 RMK A01 T02960210  RH  060%=      5-min Rain = 0
KLA1 231706Z 12009KT 29/21 A2988 RMK A01 T02940209  RH  060%=      5-min Rain = 0
KLA1 231707Z 13010KT 29/21 A2988 RMK A01 T02930209  RH  061%=      5-min Rain = 0
KLA1 231708Z 14012KT 29/21 A2988 RMK A01 T02940209  RH  060%=      5-min Rain = 0
KLA1 231709Z 15010KT 30/21 A2988 RMK A01 T02950208  RH  060%=      5-min Rain = 0
KLA1 231710Z 14010KT 30/21 A2988 RMK A01 T02960210  RH  060%=      5-min Rain = 0
KLA1 231711Z 13011KT 30/21 A2988 RMK A01 T02980211  RH  059%=      5-min Rain = 0
KLA1 231712Z 12013KT 30/21 A2987 RMK A01 T03010210  RH  058%=      5-min Rain = 0
KLA1 231713Z 13011KT 30/21 A2988 RMK A01 T03020210  RH  058%=      5-min Rain = 0
KLA1 231714Z 13012G18KT 30/21 A2987 RMK A01 T03020210  RH  058%=      5-min Rain = 0
KLA1 231715Z 14014KT 30/21 A2988 RMK A01 T03010209  RH  058%=      5-min Rain = 0
KLA1 231716Z 13013KT 30/21 A2988 RMK A01 T02980209  RH  059%=      5-min Rain = 0
KLA1 231717Z 12012KT 30/21 A2987 RMK A01 T02970209  RH  059%=      5-min Rain = 0
KLA1 231718Z 11013KT 30/21 A2987 RMK A01 T02970209  RH  059%=      5-min Rain = 0
KLA1 231719Z 13013KT 30/21 A2987 RMK A01 T02970209  RH  059%=      5-min Rain = 0
KLA1 231720Z 15009KT 30/21 A2987 RMK A01 T02990211  RH  059%=      5-min Rain = 0
KLA1 231721Z 15013G18KT 30/21 A2987 RMK A01 T03040211  RH  058%=      5-min Rain = 0
KLA1 231722Z 13015KT 31/21 A2988 RMK A01 T03050209  RH  057%=      5-min Rain = 0
KLA1 231723Z 14011KT 30/21 A2988 RMK A01 T03030209  RH  057%=      5-min Rain = 0
KLA1 231724Z 13012KT 30/21 A2988 RMK A01 T03020208  RH  057%=      5-min Rain = 0
KLA1 231725Z 14011G16KT 30/21 A2988 RMK A01 T03010206  RH  057%=      5-min Rain = 0
KLA1 231726Z 15015KT 30/21 A2988 RMK A01 T03000206  RH  057%=      5-min Rain = 0
KLA1 231727Z 14015KT 30/21 A2988 RMK A01 T03000205  RH  057%=      5-min Rain = 0
KLA1 231728Z 13014KT 30/21 A2988 RMK A01 T02990205  RH  057%=      5-min Rain = 0
KLA1 231729Z 14013KT 30/21 A2988 RMK A01 T02970207  RH  058%=      5-min Rain = 0
KLA1 231730Z 16016KT 30/21 A2987 RMK A01 T02960206  RH  058%=      5-min Rain = 0
KLA1 231731Z 15013KT 30/21 A2987 RMK A01 T02960206  RH  059%=      5-min Rain = 0
KLA1 231732Z 13012KT 30/21 A2987 RMK A01 T02950207  RH  059%=      5-min Rain = 0
KLA1 231733Z 14014G19KT 30/21 A2987 RMK A01 T02970205  RH  058%=      5-min Rain = 0
KLA1 231734Z 15017KT 30/21 A2987 RMK A01 T03000207  RH  058%=      5-min Rain = 0
KLA1 231735Z 14014KT 30/21 A2987 RMK A01 T03010207  RH  057%=      5-min Rain = 0
KLA1 231736Z 15014KT 30/21 A2987 RMK A01 T03010207  RH  057%=      5-min Rain = 0
KLA1 231737Z 14012KT 30/21 A2987 RMK A01 T03010206  RH  057%=      5-min Rain = 0
KLA1 231738Z 13016KT 30/21 A2987 RMK A01 T03010205  RH  057%=      5-min Rain = 0
KLA1 231739Z 13014KT 30/21 A2987 RMK A01 T03000205  RH  057%=      5-min Rain = 0
KLA1 231740Z 14014G19KT 30/21 A2987 RMK A01 T02980206  RH  058%=      5-min Rain = 0
KLA1 231741Z 16014G20KT 30/21 A2987 RMK A01 T02990205  RH  057%=      5-min Rain = 0
KLA1 231742Z 15012KT 30/20 A2987 RMK A01 T03000204  RH  056%=      5-min Rain = 0
KLA1 231743Z 15013KT 30/21 A2987 RMK A01 T03020205  RH  056%=      5-min Rain = 0
KLA1 231744Z 13016G22KT 30/21 A2987 RMK A01 T03030206  RH  056%=      5-min Rain = 0
KLA1 231745Z 14018KT 30/21 A2987 RMK A01 T03040206  RH  056%=      5-min Rain = 0
KLA1 231746Z 14017KT 30/21 A2987 RMK A01 T03030205  RH  056%=      5-min Rain = 0
KLA1 231747Z 13016KT 30/20 A2987 RMK A01 T03030204  RH  055%=      5-min Rain = 0
KLA1 231748Z 14014KT 30/21 A2987 RMK A01 T03030205  RH  056%=      5-min Rain = 0
KLA1 231749Z 14013G18KT 30/21 A2987 RMK A01 T03010205  RH  056%=      5-min Rain = 0
KLA1 231750Z 15012KT 30/21 A2987 RMK A01 T03020205  RH  056%=      5-min Rain = 0
KLA1 231751Z 13013G19KT 31/21 A2987 RMK A01 T03070206  RH  055%=      5-min Rain = 0
KLA1 231752Z 13015KT 31/21 A2987 RMK A01 T03120207  RH  054%=      5-min Rain = 0
KLA1 231753Z 14014KT 31/21 A2987 RMK A01 T03120206  RH  053%=      5-min Rain = 0
KLA1 231754Z 14010KT 31/20 A2987 RMK A01 T03090204  RH  054%=      5-min Rain = 0
KLA1 231755Z 15012KT 31/21 A2987 RMK A01 T03080205  RH  054%=      5-min Rain = 0
KLA1 231756Z 17013KT 31/21 A2987 RMK A01 T03090206  RH  054%=      5-min Rain = 0
KLA1 231757Z 14018G23KT 31/21 A2987 RMK A01 T03090207  RH  055%=      5-min Rain = 0
KLA1 231758Z 14014G19KT 31/21 A2987 RMK A01 T03080206  RH  055%=      5-min Rain = 0
KLA1 231759Z 14010KT 31/21 A2987 RMK A01 T03070206  RH  055%=      5-min Rain = 0
KLA1 231800Z 14012KT 31/21 A2987 RMK A01 T03100207  RH  054%=      5-min Rain = 0
KLA1 231801Z 15012KT 31/21 A2987 RMK A01 T03120207  RH  054%=      5-min Rain = 0
KLA1 231802Z 15014KT 31/21 A2987 RMK A01 T03130206  RH  053%=      5-min Rain = 0
KLA1 231803Z 16014G19KT 31/21 A2987 RMK A01 T03140205  RH  052%=      5-min Rain = 0
KLA1 231804Z 16012G18KT 32/21 A2987 RMK A01 T03150205  RH  052%=      5-min Rain = 0
KLA1 231805Z 14018KT 31/21 A2987 RMK A01 T03140205  RH  052%=      5-min Rain = 0
KLA1 231806Z 14015G20KT 31/20 A2987 RMK A01 T03100204  RH  053%=      5-min Rain = 0
KLA1 231807Z 14015KT 31/20 A2986 RMK A01 T03080204  RH  054%=      5-min Rain = 0
KLA1 231808Z 13015KT 31/20 A2986 RMK A01 T03110204  RH  053%=      5-min Rain = 0
KLA1 231809Z 14016KT 31/21 A2987 RMK A01 T03120205  RH  053%=      5-min Rain = 0
KLA1 231810Z 13015G21KT 31/20 A2986 RMK A01 T03140204  RH  052%=      5-min Rain = 0
KLA1 231811Z 14017KT 31/20 A2986 RMK A01 T03140204  RH  052%=      5-min Rain = 0
KLA1 231812Z 14013G19KT 31/20 A2986 RMK A01 T03130204  RH  052%=      5-min Rain = 0
KLA1 231813Z 15012KT 32/21 A2986 RMK A01 T03180206  RH  052%=      5-min Rain = 0
KLA1 231814Z 14014KT 32/21 A2986 RMK A01 T03200206  RH  051%=      5-min Rain = 0
KLA1 231815Z 13011KT 32/20 A2986 RMK A01 T03170204  RH  051%=      5-min Rain = 0
KLA1 231816Z 14012G17KT 31/20 A2986 RMK A01 T03130203  RH  052%=      5-min Rain = 0
KLA1 231817Z 15014G20KT 31/20 A2986 RMK A01 T03130204  RH  052%=      5-min Rain = 0
KLA1 231818Z 14017G22KT 32/20 A2986 RMK A01 T03150204  RH  052%=      5-min Rain = 0
KLA1 231819Z 14020KT 31/20 A2986 RMK A01 T03140203  RH  052%=      5-min Rain = 0
KLA1 231820Z 14016KT 31/20 A2986 RMK A01 T03120203  RH  052%=      5-min Rain = 0
KLA1 231821Z 15018KT 31/20 A2986 RMK A01 T03090204  RH  054%=      5-min Rain = 0
KLA1 231822Z 14016KT 31/21 A2986 RMK A01 T03080205  RH  054%=      5-min Rain = 0
KLA1 231823Z 15016KT 31/21 A2986 RMK A01 T03080205  RH  054%=      5-min Rain = 0
KLA1 231824Z 15016KT 31/21 A2986 RMK A01 T03090205  RH  054%=      5-min Rain = 0
KLA1 231825Z 15016KT 31/21 A2986 RMK A01 T03090205  RH  054%=      5-min Rain = 0
KLA1 231826Z 15016KT 31/20 A2985 RMK A01 T03110204  RH  053%=      5-min Rain = 0
KLA1 231827Z 13014KT 31/21 A2985 RMK A01 T03110205  RH  054%=      5-min Rain = 0
KLA1 231828Z 13014G21KT 31/21 A2985 RMK A01 T03100207  RH  054%=      5-min Rain = 0
KLA1 231829Z 13014KT 31/21 A2985 RMK A01 T03110207  RH  054%=      5-min Rain = 0
KLA1 231830Z 13017G22KT 31/21 A2985 RMK A01 T03100207  RH  054%=      5-min Rain = 0
KLA1 231831Z 13012KT 31/21 A2985 RMK A01 T03100206  RH  054%=      5-min Rain = 0
KLA1 231832Z 15017G22KT 31/21 A2985 RMK A01 T03140205  RH  053%=      5-min Rain = 0
KLA1 231833Z 15016KT 32/20 A2985 RMK A01 T03160204  RH  052%=      5-min Rain = 0
KLA1 231834Z 16017G22KT 31/21 A2985 RMK A01 T03140205  RH  052%=      5-min Rain = 0
KLA1 231835Z 15017KT 31/20 A2985 RMK A01 T03130204  RH  052%=      5-min Rain = 0
KLA1 231836Z 13012G18KT 31/20 A2985 RMK A01 T03120204  RH  053%=      5-min Rain = 0
KLA1 231837Z 13016KT 31/20 A2985 RMK A01 T03120204  RH  053%=      5-min Rain = 0
KLA1 231838Z 13013KT 31/20 A2985 RMK A01 T03110203  RH  052%=      5-min Rain = 0
KLA1 231839Z 14015KT 31/20 A2985 RMK A01 T03100202  RH  053%=      5-min Rain = 0
KLA1 231840Z 15017KT 31/20 A2985 RMK A01 T03120203  RH  052%=      5-min Rain = 0
KLA1 231841Z 14014KT 32/20 A2985 RMK A01 T03170204  RH  051%=      5-min Rain = 0
KLA1 231842Z 13012KT 32/20 A2985 RMK A01 T03180203  RH  050%=      5-min Rain = 0
KLA1 231843Z 13010KT 32/20 A2985 RMK A01 T03160203  RH  051%=      5-min Rain = 0
KLA1 231844Z 12013G20KT 32/20 A2984 RMK A01 T03160202  RH  051%=      5-min Rain = 0
KLA1 231845Z 15016KT 32/20 A2984 RMK A01 T03180204  RH  051%=      5-min Rain = 0
KLA1 231846Z 15015KT 32/20 A2984 RMK A01 T03190204  RH  051%=      5-min Rain = 0
KLA1 231847Z 14016G23KT 32/20 A2984 RMK A01 T03190204  RH  051%=      5-min Rain = 0
KLA1 231848Z 14016KT 32/20 A2984 RMK A01 T03200204  RH  051%=      5-min Rain = 0
KLA1 231849Z 13016KT 32/20 A2984 RMK A01 T03190204  RH  051%=      5-min Rain = 0
KLA1 231850Z 13015G21KT 32/21 A2984 RMK A01 T03190205  RH  051%=      5-min Rain = 0
KLA1 231851Z 12016KT 32/21 A2984 RMK A01 T03190205  RH  051%=      5-min Rain = 0
KLA1 231852Z 12017KT 32/21 A2983 RMK A01 T03190205  RH  051%=      5-min Rain = 0
KLA1 231853Z 13016KT 32/20 A2983 RMK A01 T03150204  RH  052%=      5-min Rain = 0
KLA1 231854Z 15014G19KT 31/20 A2983 RMK A01 T03110204  RH  053%=      5-min Rain = 0
KLA1 231855Z 14019KT 31/20 A2983 RMK A01 T03110203  RH  053%=      5-min Rain = 0
KLA1 231856Z 12016KT 31/20 A2983 RMK A01 T03130202  RH  052%=      5-min Rain = 0
KLA1 231857Z 14018KT 31/20 A2983 RMK A01 T03140203  RH  052%=      5-min Rain = 0
KLA1 231858Z 14015G20KT 32/20 A2984 RMK A01 T03170204  RH  051%=      5-min Rain = 0
KLA1 231859Z 14013G21KT 32/21 A2983 RMK A01 T03200205  RH  051%=      5-min Rain = 0
KLA1 231900Z 14017G22KT 32/20 A2984 RMK A01 T03220204  RH  050%=      5-min Rain = 0
KLA1 231901Z 14014KT 32/20 A2984 RMK A01 T03200204  RH  050%=      5-min Rain = 0
KLA1 231902Z 14014G19KT 32/21 A2984 RMK A01 T03190205  RH  051%=      5-min Rain = 0
KLA1 231903Z 14012KT 32/21 A2983 RMK A01 T03170205  RH  051%=      5-min Rain = 0
KLA1 231904Z 11012KT 32/20 A2983 RMK A01 T03160204  RH  052%=      5-min Rain = 0
KLA1 231905Z 12011G17KT 32/20 A2983 RMK A01 T03170203  RH  051%=      5-min Rain = 0
KLA1 231906Z 12017KT 32/20 A2983 RMK A01 T03210204  RH  050%=      5-min Rain = 0
KLA1 231907Z 12015G22KT 32/20 A2983 RMK A01 T03220204  RH  050%=      5-min Rain = 0
KLA1 231908Z 13019G24KT 32/21 A2983 RMK A01 T03230205  RH  050%=      5-min Rain = 0
KLA1 231909Z 13018G23KT 32/20 A2983 RMK A01 T03210203  RH  050%=      5-min Rain = 0
KLA1 231910Z 12014KT 32/20 A2983 RMK A01 T03180203  RH  051%=      5-min Rain = 0
KLA1 231911Z 12012KT 32/20 A2983 RMK A01 T03170202  RH  051%=      5-min Rain = 0
KLA1 231912Z 12015KT 32/20 A2983 RMK A01 T03150202  RH  051%=      5-min Rain = 0
KLA1 231913Z 15013G18KT 32/20 A2983 RMK A01 T03160201  RH  051%=      5-min Rain = 0
KLA1 231914Z 16017KT 32/20 A2983 RMK A01 T03210199  RH  049%=      5-min Rain = 0
KLA1 231915Z 16015G20KT 32/20 A2983 RMK A01 T03240200  RH  048%=      5-min Rain = 0
KLA1 231916Z 15013KT 33/20 A2983 RMK A01 T03250201  RH  048%=      5-min Rain = 0
KLA1 231917Z 14015KT 33/20 A2983 RMK A01 T03270202  RH  048%=      5-min Rain = 0
KLA1 231918Z 14014G21KT 33/20 A2983 RMK A01 T03280204  RH  048%=      5-min Rain = 0
KLA1 231919Z 14016KT 33/20 A2983 RMK A01 T03280204  RH  048%=      5-min Rain = 0
KLA1 231920Z 13018G24KT 33/20 A2983 RMK A01 T03270202  RH  048%=      5-min Rain = 0
KLA1 231921Z 14018KT 33/20 A2983 RMK A01 T03250202  RH  048%=      5-min Rain = 0
KLA1 231922Z 15014G22KT 32/20 A2983 RMK A01 T03230203  RH  049%=      5-min Rain = 0
KLA1 231923Z 15016G23KT 32/20 A2983 RMK A01 T03240203  RH  049%=      5-min Rain = 0
KLA1 231924Z 15018G23KT 33/20 A2983 RMK A01 T03260201  RH  048%=      5-min Rain = 0
KLA1 231925Z 15015G20KT 33/20 A2983 RMK A01 T03280201  RH  047%=      5-min Rain = 0
KLA1 231926Z 15016KT 33/20 A2983 RMK A01 T03300202  RH  047%=      5-min Rain = 0
KLA1 231927Z 14012G17KT 33/20 A2982 RMK A01 T03260201  RH  048%=      5-min Rain = 0
KLA1 231928Z 13016G22KT 32/20 A2982 RMK A01 T03240202  RH  049%=      5-min Rain = 0
KLA1 231929Z 12015G21KT 32/20 A2982 RMK A01 T03230204  RH  050%=      5-min Rain = 0
KLA1 231930Z 13016G22KT 32/21 A2982 RMK A01 T03240205  RH  049%=      5-min Rain = 0
KLA1 231931Z 14018KT 33/20 A2982 RMK A01 T03270204  RH  048%=      5-min Rain = 0
KLA1 231932Z 14013G21KT 33/20 A2982 RMK A01 T03290203  RH  048%=      5-min Rain = 0
KLA1 231933Z 14017G23KT 33/21 A2982 RMK A01 T03320205  RH  047%=      5-min Rain = 0
KLA1 231934Z 13015KT 33/20 A2982 RMK A01 T03340204  RH  047%=      5-min Rain = 0
KLA1 231935Z 15014KT 33/20 A2982 RMK A01 T03280203  RH  048%=      5-min Rain = 0
KLA1 231936Z 13014G21KT 33/20 A2982 RMK A01 T03260203  RH  048%=      5-min Rain = 0
KLA1 231937Z 14020G27KT 33/20 A2982 RMK A01 T03250199  RH  048%=      5-min Rain = 0
KLA1 231938Z 15018G26KT 33/20 A2982 RMK A01 T03270201  RH  048%=      5-min Rain = 0
KLA1 231939Z 15021G27KT 32/20 A2982 RMK A01 T03240201  RH  048%=      5-min Rain = 0
KLA1 231940Z 16018G23KT 32/20 A2982 RMK A01 T03200200  RH  049%=      5-min Rain = 0
KLA1 231941Z 16014G19KT 32/20 A2982 RMK A01 T03190200  RH  049%=      5-min Rain = 0
KLA1 231942Z 15012KT 32/20 A2982 RMK A01 T03210201  RH  049%=      5-min Rain = 0
KLA1 231943Z 16021G26KT 33/20 A2982 RMK A01 T03250198  RH  047%=      5-min Rain = 0
KLA1 231944Z 15022KT 33/20 A2982 RMK A01 T03260196  RH  046%=      5-min Rain = 0
KLA1 231945Z 16020KT 32/20 A2982 RMK A01 T03220197  RH  048%=      5-min Rain = 0
KLA1 231946Z 16018KT 32/20 A2982 RMK A01 T03200197  RH  048%=      5-min Rain = 0
KLA1 231947Z 15014KT 32/20 A2982 RMK A01 T03200197  RH  048%=      5-min Rain = 0
KLA1 231948Z 16013KT 32/20 A2982 RMK A01 T03210198  RH  048%=      5-min Rain = 0
KLA1 231949Z 15015G21KT 33/20 A2982 RMK A01 T03250200  RH  048%=      5-min Rain = 0
KLA1 231950Z 13016G23KT 33/20 A2982 RMK A01 T03280203  RH  048%=      5-min Rain = 0
KLA1 231951Z 14018KT 33/20 A2982 RMK A01 T03250203  RH  049%=      5-min Rain = 0
KLA1 231952Z 13013G19KT 32/20 A2982 RMK A01 T03200203  RH  050%=      5-min Rain = 0
KLA1 231953Z 14015G22KT 32/20 A2982 RMK A01 T03200202  RH  050%=      5-min Rain = 0
KLA1 231954Z 16021KT 32/20 A2982 RMK A01 T03210201  RH  049%=      5-min Rain = 0
KLA1 231955Z 14019G24KT 32/20 A2982 RMK A01 T03220200  RH  049%=      5-min Rain = 0
KLA1 231956Z 14017KT 32/20 A2982 RMK A01 T03210201  RH  049%=      5-min Rain = 0
KLA1 231957Z 14018G25KT 32/20 A2982 RMK A01 T03210202  RH  050%=      5-min Rain = 0
KLA1 231958Z 15017G23KT 32/20 A2982 RMK A01 T03210202  RH  049%=      5-min Rain = 0
KLA1 231959Z 14015KT 32/20 A2982 RMK A01 T03170201  RH  050%=      5-min Rain = 0
KLA1 232000Z 14017KT 32/20 A2982 RMK A01 T03180199  RH  049%=      5-min Rain = 0
KLA1 232001Z 15020KT 32/20 A2982 RMK A01 T03220198  RH  048%=      5-min Rain = 0
KLA1 232002Z 15017G22KT 32/20 A2982 RMK A01 T03230198  RH  048%=      5-min Rain = 0
KLA1 232003Z 15018G23KT 32/20 A2982 RMK A01 T03240198  RH  048%=      5-min Rain = 0
KLA1 232004Z 15018KT 33/20 A2982 RMK A01 T03290198  RH  046%=      5-min Rain = 0
KLA1 232005Z 15019G24KT 33/20 A2982 RMK A01 T03280197  RH  046%=      5-min Rain = 0
KLA1 232006Z 15018KT 33/20 A2982 RMK A01 T03270197  RH  046%=      5-min Rain = 0
KLA1 232007Z 15017G22KT 33/20 A2981 RMK A01 T03250199  RH  047%=      5-min Rain = 0
KLA1 232008Z 14016KT 32/20 A2981 RMK A01 T03240201  RH  048%=      5-min Rain = 0
KLA1 232009Z 15015KT 32/20 A2981 RMK A01 T03230200  RH  048%=      5-min Rain = 0
KLA1 232010Z 15012G17KT 32/20 A2981 RMK A01 T03210201  RH  049%=      5-min Rain = 0
KLA1 232011Z 15017G22KT 32/20 A2981 RMK A01 T03230200  RH  048%=      5-min Rain = 0
KLA1 232012Z 14019G25KT 32/20 A2981 RMK A01 T03240200  RH  048%=      5-min Rain = 0
KLA1 232013Z 14017KT 32/20 A2981 RMK A01 T03230201  RH  048%=      5-min Rain = 0
KLA1 232014Z 13018KT 32/20 A2981 RMK A01 T03200200  RH  049%=      5-min Rain = 0
KLA1 232015Z 13017G24KT 32/20 A2981 RMK A01 T03180201  RH  050%=      5-min Rain = 0
KLA1 232016Z 14017G25KT 32/20 A2981 RMK A01 T03170201  RH  050%=      5-min Rain = 0
KLA1 232017Z 14019KT 32/20 A2981 RMK A01 T03170199  RH  050%=      5-min Rain = 0
KLA1 232018Z 15020G25KT 32/20 A2981 RMK A01 T03180198  RH  049%=      5-min Rain = 0
KLA1 232019Z 15020KT 32/20 A2981 RMK A01 T03170198  RH  049%=      5-min Rain = 0
KLA1 232020Z 15014G21KT 32/20 A2981 RMK A01 T03160196  RH  049%=      5-min Rain = 0
KLA1 232021Z 14012G17KT 32/20 A2981 RMK A01 T03160196  RH  049%=      5-min Rain = 0
KLA1 232022Z 13016G21KT 32/20 A2981 RMK A01 T03170196  RH  049%=      5-min Rain = 0
KLA1 232023Z 14016G21KT 32/20 A2981 RMK A01 T03170196  RH  049%=      5-min Rain = 0
KLA1 232024Z 14015KT 32/20 A298 RMK A01 T03180196  RH  049%=      5-min Rain = 0
KLA1 232025Z 14018G23KT 32/20 A298 RMK A01 T03210197  RH  048%=      5-min Rain = 0
KLA1 232026Z 14015G20KT 32/20 A298 RMK A01 T03200197  RH  048%=      5-min Rain = 0
KLA1 232027Z 14019KT 32/20 A298 RMK A01 T03210197  RH  048%=      5-min Rain = 0
KLA1 232028Z 15015G22KT 32/20 A298 RMK A01 T03210197  RH  048%=      5-min Rain = 0
KLA1 232029Z 14019G25KT 32/20 A298 RMK A01 T03200197  RH  048%=      5-min Rain = 0
KLA1 232030Z 14017G22KT 32/20 A298 RMK A01 T03190198  RH  049%=      5-min Rain = 0
KLA1 232031Z 14015G21KT 32/20 A298 RMK A01 T03180198  RH  049%=      5-min Rain = 0
KLA1 232032Z 14020KT 32/20 A298 RMK A01 T03180198  RH  049%=      5-min Rain = 0
KLA1 232033Z 13018KT 32/20 A298 RMK A01 T03160198  RH  049%=      5-min Rain = 0
KLA1 232034Z 14019KT 32/20 A298 RMK A01 T03150197  RH  050%=      5-min Rain = 0
KLA1 232035Z 13016G22KT 31/20 A298 RMK A01 T03140197  RH  050%=      5-min Rain = 0
KLA1 232036Z 13013G20KT 31/20 A298 RMK A01 T03140197  RH  050%=      5-min Rain = 0
KLA1 232037Z 13016KT 32/20 A298 RMK A01 T03150198  RH  050%=      5-min Rain = 0
KLA1 232038Z 13015G24KT 32/20 A298 RMK A01 T03160198  RH  049%=      5-min Rain = 0
KLA1 232039Z 13017KT 32/20 A298 RMK A01 T03160197  RH  049%=      5-min Rain = 0
KLA1 232040Z 13017G22KT 32/20 A298 RMK A01 T03150197  RH  050%=      5-min Rain = 0
KLA1 232041Z 14017KT 31/20 A298 RMK A01 T03140197  RH  050%=      5-min Rain = 0
KLA1 232042Z 14016KT 32/20 A298 RMK A01 T03150198  RH  050%=      5-min Rain = 0
KLA1 232043Z 15016G21KT 32/20 A298 RMK A01 T03150197  RH  050%=      5-min Rain = 0
KLA1 232044Z 14018KT 32/20 A298 RMK A01 T03150197  RH  050%=      5-min Rain = 0
KLA1 232045Z 15013KT 31/20 A2979 RMK A01 T03140197  RH  050%=      5-min Rain = 0
KLA1 232046Z 14013KT 31/20 A2979 RMK A01 T03140197  RH  050%=      5-min Rain = 0
KLA1 232047Z 13012G17KT 32/20 A2979 RMK A01 T03150197  RH  050%=      5-min Rain = 0
KLA1 232048Z 15018KT 32/20 A298 RMK A01 T03160196  RH  049%=      5-min Rain = 0
KLA1 232049Z 14014G20KT 32/20 A298 RMK A01 T03160195  RH  049%=      5-min Rain = 0
KLA1 232050Z 15019KT 32/20 A2979 RMK A01 T03160195  RH  049%=      5-min Rain = 0
KLA1 232051Z 15018KT 32/20 A298 RMK A01 T03160195  RH  049%=      5-min Rain = 0
KLA1 232052Z 16015G21KT 32/20 A2979 RMK A01 T03160195  RH  049%=      5-min Rain = 0
KLA1 232053Z 15017G24KT 32/20 A2979 RMK A01 T03150195  RH  049%=      5-min Rain = 0
KLA1 232054Z 15016KT 32/19 A298 RMK A01 T03150194  RH  049%=      5-min Rain = 0
KLA1 232055Z 15015KT 31/19 A298 RMK A01 T03130193  RH  049%=      5-min Rain = 0
KLA1 232056Z 15013KT 31/19 A298 RMK A01 T03130194  RH  049%=      5-min Rain = 0
KLA1 232057Z 14015G20KT 31/19 A298 RMK A01 T03130193  RH  049%=      5-min Rain = 0
KLA1 232058Z 14014KT 31/19 A298 RMK A01 T03140192  RH  048%=      5-min Rain = 0
KLA1 232059Z 14011G17KT 31/19 A298 RMK A01 T03140192  RH  048%=      5-min Rain = 0
KLA1 232100Z 15014KT 31/19 A298 RMK A01 T03140193  RH  048%=      5-min Rain = 0
KLA1 232101Z 16015KT 32/19 A298 RMK A01 T03150194  RH  049%=      5-min Rain = 0
KLA1 232102Z 16015KT 32/20 A298 RMK A01 T03150195  RH  049%=      5-min Rain = 0
KLA1 232103Z 15013G19KT 31/19 A298 RMK A01 T03140194  RH  049%=      5-min Rain = 0
KLA1 232104Z 15013KT 31/19 A2981 RMK A01 T03130194  RH  049%=      5-min Rain = 0
KLA1 232105Z 16019KT 31/19 A2981 RMK A01 T03130194  RH  049%=      5-min Rain = 0
KLA1 232106Z 15016KT 31/19 A2981 RMK A01 T03120193  RH  049%=      5-min Rain = 0
KLA1 232107Z 15012G17KT 31/19 A2981 RMK A01 T03110193  RH  050%=      5-min Rain = 0
KLA1 232108Z 14013G18KT 31/19 A2981 RMK A01 T03110194  RH  050%=      5-min Rain = 0
KLA1 232109Z 15013G19KT 31/19 A2981 RMK A01 T03110194  RH  050%=      5-min Rain = 0
KLA1 232110Z 16016G21KT 31/19 A2981 RMK A01 T03110194  RH  050%=      5-min Rain = 0
KLA1 232111Z 15016KT 31/19 A2982 RMK A01 T03110194  RH  050%=      5-min Rain = 0
KLA1 232112Z 16016G21KT 31/19 A2982 RMK A01 T03100194  RH  050%=      5-min Rain = 0
KLA1 232113Z 16016G22KT 31/19 A2982 RMK A01 T03100192  RH  050%=      5-min Rain = 0
KLA1 232114Z 17018KT 31/19 A2982 RMK A01 T03100193  RH  050%=      5-min Rain = 0
KLA1 232115Z 16014G20KT 31/20 A2982 RMK A01 T03090195  RH  051%=      5-min Rain = 0
KLA1 232116Z 16015KT 31/20 A2982 RMK A01 T03090195  RH  051%=      5-min Rain = 0
KLA1 232117Z 15018G23KT 31/20 A2982 RMK A01 T03090195  RH  051%=      5-min Rain = 0
KLA1 232118Z 15015G21KT 31/19 A2982 RMK A01 T03090194  RH  051%=      5-min Rain = 0
KLA1 232119Z 15017KT 31/19 A2982 RMK A01 T03080194  RH  051%=      5-min Rain = 0
KLA1 232120Z 15018G23KT 31/20 A2982 RMK A01 T03080195  RH  051%=      5-min Rain = 0
KLA1 232121Z 15010KT 31/20 A2982 RMK A01 T03080195  RH  051%=      5-min Rain = 0
KLA1 232122Z 15013KT 31/20 A2982 RMK A01 T03080196  RH  051%=      5-min Rain = 0
KLA1 232123Z 15011KT 31/20 A2982 RMK A01 T03090196  RH  051%=      5-min Rain = 0
KLA1 232124Z 14011KT 31/20 A2982 RMK A01 T03090196  RH  051%=      5-min Rain = 0
KLA1 232125Z 15013KT 31/20 A2982 RMK A01 T03090196  RH  051%=      5-min Rain = 0
KLA1 232126Z 15012KT 31/20 A2982 RMK A01 T03090197  RH  051%=      5-min Rain = 0
KLA1 232127Z 15017KT 31/20 A2982 RMK A01 T03090197  RH  051%=      5-min Rain = 0
KLA1 232128Z 15015KT 31/20 A2981 RMK A01 T03090197  RH  051%=      5-min Rain = 0
KLA1 232129Z 14015KT 31/20 A2981 RMK A01 T03080197  RH  052%=      5-min Rain = 0
KLA1 232130Z 13018G23KT 31/20 A2981 RMK A01 T03070197  RH  052%=      5-min Rain = 0
KLA1 232131Z 14018KT 31/20 A2981 RMK A01 T03060196  RH  052%=      5-min Rain = 0
KLA1 232132Z 15018KT 31/20 A2981 RMK A01 T03060196  RH  052%=      5-min Rain = 0
KLA1 232133Z 15016KT 31/20 A2981 RMK A01 T03060196  RH  052%=      5-min Rain = 0
KLA1 232134Z 15015G20KT 31/20 A2981 RMK A01 T03060196  RH  052%=      5-min Rain = 0
KLA1 232135Z 16014G21KT 31/20 A2981 RMK A01 T03050195  RH  052%=      5-min Rain = 0
KLA1 232136Z 16016G22KT 31/20 A2981 RMK A01 T03050195  RH  052%=      5-min Rain = 0
KLA1 232137Z 17015KT 31/20 A2981 RMK A01 T03050196  RH  052%=      5-min Rain = 0
KLA1 232138Z 16015KT 30/20 A298 RMK A01 T03040196  RH  053%=      5-min Rain = 0
KLA1 232139Z 16012G17KT 30/20 A298 RMK A01 T03040197  RH  053%=      5-min Rain = 0
KLA1 232140Z 16017KT 30/20 A298 RMK A01 T03040197  RH  053%=      5-min Rain = 0
KLA1 232141Z 15014KT 30/20 A298 RMK A01 T03040198  RH  053%=      5-min Rain = 0
KLA1 232142Z 15012KT 30/20 A298 RMK A01 T03040197  RH  053%=      5-min Rain = 0
KLA1 232143Z 14014KT 30/20 A298 RMK A01 T03040197  RH  053%=      5-min Rain = 0
KLA1 232144Z 14015KT 30/20 A298 RMK A01 T03040197  RH  053%=      5-min Rain = 0
KLA1 232145Z 15015G21KT 30/20 A298 RMK A01 T03030197  RH  053%=      5-min Rain = 0
KLA1 232146Z 14016G21KT 30/20 A298 RMK A01 T03030196  RH  053%=      5-min Rain = 0
KLA1 232147Z 15015G21KT 30/20 A298 RMK A01 T03020197  RH  053%=      5-min Rain = 0
KLA1 232148Z 14018KT 30/20 A298 RMK A01 T03010197  RH  054%=      5-min Rain = 0
KLA1 232149Z 15016G21KT 30/20 A2981 RMK A01 T03000197  RH  054%=      5-min Rain = 0
KLA1 232150Z 14016G21KT 30/20 A2981 RMK A01 T03000198  RH  054%=      5-min Rain = 0
KLA1 232151Z 15018KT 30/20 A2981 RMK A01 T02990198  RH  055%=      5-min Rain = 0
KLA1 232152Z 14016G22KT 30/20 A2981 RMK A01 T02990198  RH  055%=      5-min Rain = 0
KLA1 232153Z 14016KT 30/20 A2981 RMK A01 T02980198  RH  055%=      5-min Rain = 0
KLA1 232154Z 15016KT 30/20 A2981 RMK A01 T02980198  RH  055%=      5-min Rain = 0
KLA1 232155Z 15014KT 30/20 A298 RMK A01 T02980197  RH  055%=      5-min Rain = 0
KLA1 232156Z 14014KT 30/20 A298 RMK A01 T02980197  RH  055%=      5-min Rain = 0
KLA1 232157Z 14013KT 30/20 A298 RMK A01 T02980197  RH  055%=      5-min Rain = 0
KLA1 232158Z 14014KT 30/20 A298 RMK A01 T02980197  RH  055%=      5-min Rain = 0
KLA1 232159Z 15013G19KT 30/20 A298 RMK A01 T02970197  RH  055%=      5-min Rain = 0
KLA1 232200Z 15014G20KT 30/20 A298 RMK A01 T02970197  RH  055%=      5-min Rain = 0
KLA1 232201Z 14015KT 30/20 A298 RMK A01 T02970197  RH  055%=      5-min Rain = 0
KLA1 232202Z 15015KT 30/20 A298 RMK A01 T02970197  RH  055%=      5-min Rain = 0
KLA1 232203Z 15014KT 30/20 A298 RMK A01 T02970197  RH  055%=      5-min Rain = 0
KLA1 232204Z 15014KT 30/20 A298 RMK A01 T02960197  RH  055%=      5-min Rain = 0
KLA1 232205Z 16015KT 30/20 A298 RMK A01 T02960198  RH  055%=      5-min Rain = 0
KLA1 232206Z 15013KT 30/20 A2979 RMK A01 T02960198  RH  056%=      5-min Rain = 0
KLA1 232207Z 14013KT 30/20 A2979 RMK A01 T02950198  RH  056%=      5-min Rain = 0
KLA1 232208Z 14012KT 30/20 A2979 RMK A01 T02950199  RH  056%=      5-min Rain = 0
KLA1 232209Z 14019G24KT 30/20 A2979 RMK A01 T02950199  RH  056%=      5-min Rain = 0
KLA1 232210Z 14015G22KT 29/20 A2979 RMK A01 T02940199  RH  056%=      5-min Rain = 0
KLA1 232211Z 15017G22KT 29/20 A2979 RMK A01 T02940199  RH  057%=      5-min Rain = 0
KLA1 232212Z 15017G22KT 29/20 A2979 RMK A01 T02940199  RH  057%=      5-min Rain = 0
KLA1 232213Z 15017KT 29/20 A2978 RMK A01 T02930199  RH  057%=      5-min Rain = 0
KLA1 232214Z 15016KT 29/20 A2978 RMK A01 T02930199  RH  057%=      5-min Rain = 0
KLA1 232215Z 14017KT 29/20 A2978 RMK A01 T02930198  RH  057%=      5-min Rain = 0
KLA1 232216Z 14015KT 29/20 A2978 RMK A01 T02930199  RH  057%=      5-min Rain = 0
KLA1 232217Z 13010G16KT 29/20 A2978 RMK A01 T02930199  RH  057%=      5-min Rain = 0
KLA1 232218Z 14014KT 29/20 A2977 RMK A01 T02930199  RH  057%=      5-min Rain = 0
KLA1 232219Z 14014G19KT 29/20 A2977 RMK A01 T02930198  RH  057%=      5-min Rain = 0
KLA1 232220Z 13015KT 29/20 A2977 RMK A01 T02940198  RH  056%=      5-min Rain = 0
KLA1 232221Z 13014KT 29/20 A2977 RMK A01 T02930198  RH  056%=      5-min Rain = 0
KLA1 232222Z 12012KT 29/20 A2977 RMK A01 T02940198  RH  056%=      5-min Rain = 0
KLA1 232223Z 13012KT 29/20 A2978 RMK A01 T02940198  RH  056%=      5-min Rain = 0
KLA1 232224Z 13014G20KT 29/20 A2978 RMK A01 T02940198  RH  056%=      5-min Rain = 0
KLA1 232225Z 13012KT 29/20 A2979 RMK A01 T02940198  RH  056%=      5-min Rain = 0
KLA1 232226Z 13013KT 29/20 A2979 RMK A01 T02940198  RH  056%=      5-min Rain = 0
KLA1 232227Z 14011KT 30/20 A298 RMK A01 T02950198  RH  056%=      5-min Rain = 0
KLA1 232228Z 14010G16KT 30/20 A298 RMK A01 T02950198  RH  056%=      5-min Rain = 0
KLA1 232229Z 15013KT 30/20 A298 RMK A01 T02950198  RH  056%=      5-min Rain = 0
KLA1 232230Z 14014KT 30/20 A298 RMK A01 T02950198  RH  056%=      5-min Rain = 0
KLA1 232231Z 15010KT 29/20 A298 RMK A01 T02940198  RH  056%=      5-min Rain = 0
KLA1 232232Z 14016KT 29/20 A298 RMK A01 T02940198  RH  056%=      5-min Rain = 0
KLA1 232233Z 15014KT 29/20 A298 RMK A01 T02940198  RH  056%=      5-min Rain = 0
KLA1 232234Z 14010KT 29/20 A298 RMK A01 T02940197  RH  056%=      5-min Rain = 0
KLA1 232235Z 14011KT 29/20 A298 RMK A01 T02940198  RH  056%=      5-min Rain = 0
KLA1 232236Z 14009KT 29/20 A298 RMK A01 T02930197  RH  056%=      5-min Rain = 0
KLA1 232237Z 14009KT 29/20 A298 RMK A01 T02930197  RH  056%=      5-min Rain = 0
KLA1 232238Z 15008KT 29/20 A298 RMK A01 T02930197  RH  056%=      5-min Rain = 0
KLA1 232239Z 14009KT 29/20 A298 RMK A01 T02930197  RH  056%=      5-min Rain = 0
KLA1 232240Z 13010KT 29/20 A298 RMK A01 T02930197  RH  056%=      5-min Rain = 0
KLA1 232241Z 14011KT 29/20 A298 RMK A01 T02930197  RH  056%=      5-min Rain = 0
KLA1 232242Z 15010KT 29/20 A298 RMK A01 T02930196  RH  056%=      5-min Rain = 0
KLA1 232243Z 14012KT 29/20 A298 RMK A01 T02920195  RH  056%=      5-min Rain = 0
KLA1 232244Z 13011KT 29/20 A298 RMK A01 T02930196  RH  056%=      5-min Rain = 0
KLA1 232245Z 14007KT 29/20 A298 RMK A01 T02930196  RH  056%=      5-min Rain = 0
KLA1 232246Z 16007KT 29/20 A298 RMK A01 T02930196  RH  056%=      5-min Rain = 0
KLA1 232247Z 14008KT 29/20 A298 RMK A01 T02930195  RH  056%=      5-min Rain = 0
KLA1 232248Z 12007KT 29/20 A2981 RMK A01 T02930195  RH  056%=      5-min Rain = 0
KLA1 232249Z 11010KT 29/20 A2981 RMK A01 T02930195  RH  056%=      5-min Rain = 0
KLA1 232250Z 14010KT 29/20 A2981 RMK A01 T02930195  RH  056%=      5-min Rain = 0
KLA1 232251Z 14007KT 29/20 A298 RMK A01 T02930195  RH  056%=      5-min Rain = 0
KLA1 232252Z 12007KT 29/20 A298 RMK A01 T02930195  RH  056%=      5-min Rain = 0
KLA1 232253Z 14008KT 29/20 A298 RMK A01 T02920195  RH  056%=      5-min Rain = 0
KLA1 232254Z 12007KT 29/19 A298 RMK A01 T02920194  RH  056%=      5-min Rain = 0
KLA1 232255Z 12009KT 29/20 A298 RMK A01 T02920195  RH  056%=      5-min Rain = 0
KLA1 232256Z 12009KT 29/19 A298 RMK A01 T02920194  RH  056%=      5-min Rain = 0
KLA1 232257Z 11009KT 29/20 A2979 RMK A01 T02920195  RH  056%=      5-min Rain = 0
KLA1 232258Z 09011G16KT 29/19 A2979 RMK A01 T02920194  RH  056%=      5-min Rain = 0
KLA1 232259Z 10013KT 29/19 A2979 RMK A01 T02920194  RH  056%=      5-min Rain = 0
KLA1 232300Z 10014G19KT 29/19 A2978 RMK A01 T02920194  RH  056%=      5-min Rain = 0
KLA1 232301Z 10015G20KT 29/19 A2978 RMK A01 T02920194  RH  056%=      5-min Rain = 0
KLA1 232302Z 10014KT 29/19 A2977 RMK A01 T02910193  RH  056%=      5-min Rain = 0
KLA1 232303Z 11011KT 29/19 A2977 RMK A01 T02910194  RH  056%=      5-min Rain = 0
KLA1 232304Z 11010KT 29/19 A2977 RMK A01 T02910194  RH  056%=      5-min Rain = 0
KLA1 232305Z 11007KT 29/19 A2978 RMK A01 T02910193  RH  056%=      5-min Rain = 0
KLA1 232306Z 11005KT 29/19 A2978 RMK A01 T02910193  RH  056%=      5-min Rain = 0
KLA1 232307Z 10006KT 29/19 A2978 RMK A01 T02910194  RH  056%=      5-min Rain = 0
KLA1 232308Z 10006KT 29/19 A2979 RMK A01 T02910194  RH  056%=      5-min Rain = 0
KLA1 232309Z 10010G16KT 29/19 A2979 RMK A01 T02910194  RH  056%=      5-min Rain = 0
KLA1 232310Z 12010KT 29/19 A2979 RMK A01 T02910193  RH  056%=      5-min Rain = 0
KLA1 232311Z 13007KT 29/19 A2979 RMK A01 T02910194  RH  056%=      5-min Rain = 0
KLA1 232312Z 13008KT 29/19 A2979 RMK A01 T02910194  RH  056%=      5-min Rain = 0
KLA1 232313Z 15009KT 29/19 A2979 RMK A01 T02910194  RH  056%=      5-min Rain = 0
KLA1 232314Z 14008KT 29/19 A2979 RMK A01 T02900194  RH  056%=      5-min Rain = 0
KLA1 232315Z 13006KT 29/19 A2979 RMK A01 T02900194  RH  056%=      5-min Rain = 0
KLA1 232316Z 13005KT 29/19 A2979 RMK A01 T02900194  RH  056%=      5-min Rain = 0
KLA1 232317Z 13004KT 29/19 A2979 RMK A01 T02900194  RH  056%=      5-min Rain = 0
KLA1 232318Z 10003KT 29/19 A2979 RMK A01 T02900194  RH  056%=      5-min Rain = 0
KLA1 232319Z 10004KT 29/19 A298 RMK A01 T02900194  RH  056%=      5-min Rain = 0
KLA1 232320Z 11004KT 29/19 A298 RMK A01 T02900194  RH  056%=      5-min Rain = 0
KLA1 232321Z 15004KT 29/19 A298 RMK A01 T02900194  RH  056%=      5-min Rain = 0
KLA1 232322Z 20004KT 29/19 A298 RMK A01 T02900194  RH  056%=      5-min Rain = 0
KLA1 232323Z 19005KT 29/19 A2981 RMK A01 T02900194  RH  056%=      5-min Rain = 0
KLA1 232324Z 19004KT 29/19 A2981 RMK A01 T02900194  RH  056%=      5-min Rain = 0
KLA1 232325Z 18004KT 29/19 A2981 RMK A01 T02900194  RH  056%=      5-min Rain = 0
KLA1 232326Z 18003KT 29/19 A2981 RMK A01 T02900194  RH  056%=      5-min Rain = 0
KLA1 232327Z 18002KT 29/19 A2981 RMK A01 T02900194  RH  056%=      5-min Rain = 0
KLA1 232328Z 18005KT 29/19 A2981 RMK A01 T02900194  RH  056%=      5-min Rain = 0
KLA1 232329Z 18005KT 29/19 A2981 RMK A01 T02900194  RH  056%=      5-min Rain = 0
KLA1 232330Z 18002KT 29/19 A2981 RMK A01 T02900194  RH  056%=      5-min Rain = 0
KLA1 232331Z 14002KT 29/19 A2981 RMK A01 T02900194  RH  056%=      5-min Rain = 0
KLA1 232332Z 11001KT 29/19 A2981 RMK A01 T02900194  RH  056%=      5-min Rain = 0
KLA1 232333Z 20000KT 29/19 A2981 RMK A01 T02900194  RH  056%=      5-min Rain = 0
KLA1 232334Z 00000KT 29/19 A2981 RMK A01 T02900194  RH  056%=      5-min Rain = 0
KLA1 232335Z 26002KT 29/19 A2981 RMK A01 T02900194  RH  056%=      5-min Rain = 0
KLA1 232336Z 24003KT 29/20 A2981 RMK A01 T02900195  RH  056%=      5-min Rain = 0
KLA1 232337Z 26005KT 29/19 A2981 RMK A01 T02900194  RH  056%=      5-min Rain = 0
KLA1 232338Z 24006KT 29/19 A2981 RMK A01 T02900194  RH  056%=      5-min Rain = 0
KLA1 232339Z 25005KT 29/19 A2981 RMK A01 T02900194  RH  056%=      5-min Rain = 0
KLA1 232340Z 25005KT 29/19 A2981 RMK A01 T02910194  RH  056%=      5-min Rain = 0
KLA1 232341Z 25003KT 29/19 A2981 RMK A01 T02900193  RH  056%=      5-min Rain = 0
KLA1 232342Z 27005KT 29/19 A2981 RMK A01 T02900193  RH  056%=      5-min Rain = 0
KLA1 232343Z 27004KT 29/19 A2981 RMK A01 T02900194  RH  056%=      5-min Rain = 0
KLA1 232344Z 29004KT 29/19 A2981 RMK A01 T02900194  RH  056%=      5-min Rain = 0
KLA1 232345Z 30004KT 29/19 A298 RMK A01 T02900194  RH  056%=      5-min Rain = 0
KLA1 232346Z 31003KT 29/20 A298 RMK A01 T02910195  RH  056%=      5-min Rain = 0
KLA1 232347Z 31003KT 29/19 A298 RMK A01 T02900194  RH  056%=      5-min Rain = 0
KLA1 232348Z 31003KT 29/19 A298 RMK A01 T02900194  RH  056%=      5-min Rain = 0
KLA1 232349Z 30003KT 29/19 A298 RMK A01 T02900194  RH  056%=      5-min Rain = 0
KLA1 232350Z 31002KT 29/19 A2981 RMK A01 T02900194  RH  056%=      5-min Rain = 0
KLA1 232351Z 30001KT 29/19 A2981 RMK A01 T02900194  RH  056%=      5-min Rain = 0
KLA1 232352Z 32002KT 29/19 A2981 RMK A01 T02900194  RH  056%=      5-min Rain = 0
KLA1 232353Z 32002KT 29/19 A2981 RMK A01 T02900194  RH  056%=      5-min Rain = 0
KLA1 232354Z 33004KT 29/19 A2981 RMK A01 T02900194  RH  056%=      5-min Rain = 0
KLA1 232355Z 33004KT 29/19 A2981 RMK A01 T02900194  RH  056%=      5-min Rain = 0
KLA1 232356Z 32007KT 29/19 A2981 RMK A01 T02900194  RH  056%=      5-min Rain = 0
KLA1 232357Z 31013KT 29/18 A2981 RMK A01 T02900178  RH  051%=      5-min Rain = 0
KLA1 232358Z 31012G17KT 28/15 A2981 RMK A01 T02820146  RH  043%=      5-min Rain = 0
KLA1 232359Z 31013KT 27/14 A2982 RMK A01 T02720139  RH  044%=      5-min Rain = 0
KLA1 240000Z 32012KT 27/14 A2982 RMK A01 T02660138  RH  045%=      5-min Rain = 0
KLA1 240001Z 35013KT 26/14 A2982 RMK A01 T02630138  RH  046%=      5-min Rain = 0
KLA1 240002Z 34010KT 26/14 A2982 RMK A01 T02610136  RH  046%=      5-min Rain = 0
KLA1 240003Z 35011KT 26/14 A2982 RMK A01 T02600135  RH  046%=      5-min Rain = 0
KLA1 240004Z 35011KT 26/13 A2982 RMK A01 T02580134  RH  046%=      5-min Rain = 0
KLA1 240005Z 35010KT 26/13 A2982 RMK A01 T02570134  RH  047%=      5-min Rain = 0
KLA1 240006Z 35009KT 26/14 A2982 RMK A01 T02570136  RH  047%=      5-min Rain = 0
KLA1 240007Z 33007KT 26/14 A2982 RMK A01 T02570136  RH  047%=      5-min Rain = 0
KLA1 240008Z 33004KT 26/14 A2982 RMK A01 T02570136  RH  047%=      5-min Rain = 0
KLA1 240009Z 35004KT 26/14 A2982 RMK A01 T02570136  RH  047%=      5-min Rain = 0
KLA1 240010Z 36005KT 26/14 A2983 RMK A01 T02580137  RH  047%=      5-min Rain = 0
KLA1 240011Z 01009KT 26/14 A2983 RMK A01 T02590138  RH  047%=      5-min Rain = 0
KLA1 240012Z 36010KT 26/14 A2983 RMK A01 T02580139  RH  048%=      5-min Rain = 0
KLA1 240013Z 36009KT 26/14 A2984 RMK A01 T02570138  RH  048%=      5-min Rain = 0
KLA1 240014Z 35012KT 26/14 A2984 RMK A01 T02550138  RH  048%=      5-min Rain = 0
KLA1 240015Z 34012KT 25/14 A2984 RMK A01 T02520136  RH  048%=      5-min Rain = 0
KLA1 240016Z 34011KT 25/14 A2985 RMK A01 T02490135  RH  049%=      5-min Rain = 0
KLA1 240017Z 34013G18KT 25/14 A2985 RMK A01 T02470135  RH  050%=      5-min Rain = 0
KLA1 240018Z 35014KT 24/13 A2985 RMK A01 T02440133  RH  050%=      5-min Rain = 0
KLA1 240019Z 34010KT 24/13 A2985 RMK A01 T02410133  RH  051%=      5-min Rain = 0
KLA1 240020Z 34008KT 24/13 A2985 RMK A01 T02400134  RH  051%=      5-min Rain = 0
KLA1 240021Z 35013KT 24/13 A2986 RMK A01 T02400134  RH  051%=      5-min Rain = 0
KLA1 240022Z 34010KT 24/13 A2986 RMK A01 T02400134  RH  052%=      5-min Rain = 0
KLA1 240023Z 35011KT 24/13 A2986 RMK A01 T02400134  RH  052%=      5-min Rain = 0
KLA1 240024Z 34010KT 24/13 A2986 RMK A01 T02390134  RH  052%=      5-min Rain = 0
KLA1 240025Z 35010KT 24/13 A2986 RMK A01 T02370134  RH  052%=      5-min Rain = 0
KLA1 240026Z 01009KT 24/14 A2985 RMK A01 T02360135  RH  053%=      5-min Rain = 0
KLA1 240027Z 01012KT 24/14 A2985 RMK A01 T02350135  RH  053%=      5-min Rain = 0
KLA1 240028Z 02010G16KT 23/14 A2985 RMK A01 T02340136  RH  054%=      5-min Rain = 0
KLA1 240029Z 02013G19KT 23/14 A2985 RMK A01 T02320137  RH  055%=      5-min Rain = 0
KLA1 240030Z 02010G17KT 23/14 A2984 RMK A01 T02310138  RH  056%=      5-min Rain = 0
KLA1 240031Z 03012KT 23/14 A2984 RMK A01 T02290140  RH  057%=      5-min Rain = 0
KLA1 240032Z 02012G17KT 23/14 A2984 RMK A01 T02270141  RH  058%=      5-min Rain = 0
KLA1 240033Z 02011G17KT 23/14 A2984 RMK A01 T02260142  RH  059%=      5-min Rain = 0
KLA1 240034Z 03010G15KT 23/14 A2984 RMK A01 T02250143  RH  059%=      5-min Rain = 0
KLA1 240035Z 02011G16KT 23/14 A2984 RMK A01 T02250143  RH  060%=      5-min Rain = 0
KLA1 240036Z 02013KT 23/14 A2985 RMK A01 T02250142  RH  060%=      5-min Rain = 0
KLA1 240037Z 03007G12KT 23/14 A2985 RMK A01 T02250142  RH  060%=      5-min Rain = 0
KLA1 240038Z 02010KT 23/14 A2985 RMK A01 T02250142  RH  060%=      5-min Rain = 0
KLA1 240039Z 02011KT 23/14 A2985 RMK A01 T02250142  RH  059%=      5-min Rain = 0
KLA1 240040Z 02009KT 23/14 A2985 RMK A01 T02260141  RH  059%=      5-min Rain = 0
KLA1 240041Z 02007KT 23/14 A2985 RMK A01 T02260141  RH  059%=      5-min Rain = 0
KLA1 240042Z 02010G15KT 23/14 A2985 RMK A01 T02260140  RH  058%=      5-min Rain = 0
KLA1 240043Z 02007KT 23/14 A2985 RMK A01 T02270139  RH  057%=      5-min Rain = 0
KLA1 240044Z 02007KT 23/14 A2985 RMK A01 T02280138  RH  057%=      5-min Rain = 0
KLA1 240045Z 02008KT 23/14 A2985 RMK A01 T02280137  RH  056%=      5-min Rain = 0
KLA1 240046Z 02007KT 23/14 A2985 RMK A01 T02290137  RH  056%=      5-min Rain = 0
KLA1 240047Z 03007KT 23/14 A2984 RMK A01 T02300138  RH  056%=      5-min Rain = 0
KLA1 240048Z 02009KT 23/14 A2984 RMK A01 T02300138  RH  056%=      5-min Rain = 0
KLA1 240049Z 02007KT 23/14 A2984 RMK A01 T02300139  RH  056%=      5-min Rain = 0
KLA1 240050Z 02008KT 23/14 A2984 RMK A01 T02300140  RH  057%=      5-min Rain = 0
KLA1 240051Z 01009KT 23/14 A2984 RMK A01 T02300139  RH  056%=      5-min Rain = 0
KLA1 240052Z 02008KT 23/14 A2984 RMK A01 T02300138  RH  056%=      5-min Rain = 0
KLA1 240053Z 01006KT 23/14 A2984 RMK A01 T02310138  RH  056%=      5-min Rain = 0
KLA1 240054Z 02006KT 23/14 A2984 RMK A01 T02310138  RH  056%=      5-min Rain = 0
KLA1 240055Z 36004KT 23/14 A2984 RMK A01 T02320138  RH  055%=      5-min Rain = 0
KLA1 240056Z 35002KT 23/14 A2984 RMK A01 T02330139  RH  056%=      5-min Rain = 0
KLA1 240057Z 01002KT 23/14 A2984 RMK A01 T02330139  RH  055%=      5-min Rain = 0
KLA1 240058Z 02000KT 23/14 A2984 RMK A01 T02330139  RH  055%=      5-min Rain = 0
KLA1 240059Z 16000KT 23/14 A2985 RMK A01 T02330139  RH  056%=      5-min Rain = 0
KLA1 240100Z 16000KT 23/14 A2985 RMK A01 T02340142  RH  056%=      5-min Rain = 0
KLA1 240101Z 15001KT 23/14 A2985 RMK A01 T02340143  RH  056%=      5-min Rain = 0
KLA1 240102Z 17002KT 24/14 A2985 RMK A01 T02350144  RH  057%=      5-min Rain = 0
KLA1 240103Z 16002KT 24/14 A2985 RMK A01 T02360144  RH  056%=      5-min Rain = 0
KLA1 240104Z 11001KT 24/14 A2985 RMK A01 T02370143  RH  056%=      5-min Rain = 0
KLA1 240105Z 14001KT 24/15 A2985 RMK A01 T02380148  RH  057%=      5-min Rain = 0
KLA1 240106Z 13002KT 24/15 A2984 RMK A01 T02380148  RH  057%=      5-min Rain = 0
KLA1 240107Z 15004KT 24/15 A2984 RMK A01 T02380147  RH  057%=      5-min Rain = 0
KLA1 240108Z 15003KT 24/15 A2984 RMK A01 T02380145  RH  056%=      5-min Rain = 0
KLA1 240109Z 16005KT 24/15 A2984 RMK A01 T02380146  RH  056%=      5-min Rain = 0
KLA1 240110Z 16004KT 24/15 A2984 RMK A01 T02370148  RH  057%=      5-min Rain = 0
KLA1 240111Z 17005KT 24/15 A2984 RMK A01 T02380151  RH  058%=      5-min Rain = 0
KLA1 240112Z 17005KT 24/15 A2984 RMK A01 T02380149  RH  057%=      5-min Rain = 0
KLA1 240113Z 17005KT 24/15 A2984 RMK A01 T02370148  RH  057%=      5-min Rain = 0
KLA1 240114Z 15004KT 24/15 A2983 RMK A01 T02360147  RH  057%=      5-min Rain = 0
KLA1 240115Z 13005KT 24/15 A2983 RMK A01 T02360147  RH  057%=      5-min Rain = 0
KLA1 240116Z 13006KT 24/15 A2983 RMK A01 T02350145  RH  057%=      5-min Rain = 0
KLA1 240117Z 13007KT 24/15 A2983 RMK A01 T02350146  RH  057%=      5-min Rain = 0
KLA1 240118Z 13009KT 24/14 A2982 RMK A01 T02350144  RH  057%=      5-min Rain = 0
KLA1 240119Z 13011KT 24/14 A2982 RMK A01 T02350144  RH  057%=      5-min Rain = 0
KLA1 240120Z 12011KT 24/14 A2982 RMK A01 T02350144  RH  057%=      5-min Rain = 0
KLA1 240121Z 12012KT 24/14 A2981 RMK A01 T02350144  RH  057%=      5-min Rain = 0
KLA1 240122Z 12013KT 24/14 A2981 RMK A01 T02350144  RH  057%=      5-min Rain = 0
KLA1 240123Z 12013KT 24/15 A298 RMK A01 T02350146  RH  057%=      5-min Rain = 0
KLA1 240124Z 12013KT 24/15 A298 RMK A01 T02350148  RH  058%=      5-min Rain = 0
KLA1 240125Z 11013KT 23/15 A2979 RMK A01 T02340150  RH  059%=      5-min Rain = 0
KLA1 240126Z 11011KT 23/15 A2979 RMK A01 T02340151  RH  060%=      5-min Rain = 0
KLA1 240127Z 11014KT 23/15 A2978 RMK A01 T02340152  RH  060%=      5-min Rain = 0
KLA1 240128Z 11014KT 23/15 A2977 RMK A01 T02330154  RH  061%=      5-min Rain = 0
KLA1 240129Z 11016KT 23/15 A2976 RMK A01 T02330153  RH  061%=      5-min Rain = 0
KLA1 240130Z 11016KT 23/15 A2976 RMK A01 T02320152  RH  061%=      5-min Rain = 0
KLA1 240131Z 12017KT 23/15 A2975 RMK A01 T02320152  RH  061%=      5-min Rain = 0
KLA1 240132Z 12015KT 23/15 A2975 RMK A01 T02320153  RH  061%=      5-min Rain = 0
KLA1 240133Z 12014G19KT 23/16 A2974 RMK A01 T02320155  RH  062%=      5-min Rain = 0
KLA1 240134Z 13016KT 23/16 A2974 RMK A01 T02320156  RH  062%=      5-min Rain = 0
KLA1 240135Z 12013KT 23/16 A2973 RMK A01 T02320158  RH  063%=      5-min Rain = 0
KLA1 240136Z 12012KT 23/16 A2973 RMK A01 T02330160  RH  063%=      5-min Rain = 0
KLA1 240137Z 11011KT 24/16 A2973 RMK A01 T02360162  RH  063%=      5-min Rain = 0
KLA1 240138Z 11016G21KT 24/17 A2973 RMK A01 T02420167  RH  063%=      5-min Rain = 0
KLA1 240139Z 11016KT 25/17 A2973 RMK A01 T02510169  RH  061%=      5-min Rain = 0
KLA1 240140Z 11017KT 26/17 A2973 RMK A01 T02580170  RH  058%=      5-min Rain = 0
KLA1 240141Z 12015KT 26/17 A2973 RMK A01 T02610170  RH  057%=      5-min Rain = 0
KLA1 240142Z 12017KT 26/17 A2974 RMK A01 T02620168  RH  056%=      5-min Rain = 0
KLA1 240143Z 14013KT 26/17 A2974 RMK A01 T02620167  RH  056%=      5-min Rain = 0
KLA1 240144Z 15013KT 26/17 A2974 RMK A01 T02600165  RH  055%=      5-min Rain = 0
KLA1 240145Z 14014KT 25/16 A2974 RMK A01 T02540162  RH  057%=      5-min Rain = 0
KLA1 240146Z 14013KT 25/16 A2974 RMK A01 T02490161  RH  058%=      5-min Rain = 0
KLA1 240147Z 14012KT 25/16 A2974 RMK A01 T02470162  RH  059%=      5-min Rain = 0
KLA1 240148Z 13010KT 25/16 A2974 RMK A01 T02460164  RH  060%=      5-min Rain = 0
KLA1 240149Z 13011KT 25/17 A2975 RMK A01 T02470166  RH  061%=      5-min Rain = 0
KLA1 240150Z 13013G20KT 25/17 A2975 RMK A01 T02510168  RH  060%=      5-min Rain = 0
KLA1 240151Z 13014KT 26/17 A2975 RMK A01 T02570168  RH  058%=      5-min Rain = 0
KLA1 240152Z 13015G20KT 26/17 A2975 RMK A01 T02610167  RH  056%=      5-min Rain = 0
KLA1 240153Z 12015KT 26/16 A2976 RMK A01 T02620164  RH  055%=      5-min Rain = 0
KLA1 240154Z 13013G19KT 26/16 A2976 RMK A01 T02610161  RH  054%=      5-min Rain = 0
KLA1 240155Z 14014G19KT 26/16 A2976 RMK A01 T02580158  RH  054%=      5-min Rain = 0
KLA1 240156Z 14012KT 26/16 A2976 RMK A01 T02550158  RH  055%=      5-min Rain = 0
KLA1 240157Z 13012KT 26/16 A2976 RMK A01 T02550158  RH  055%=      5-min Rain = 0
KLA1 240158Z 13009KT 25/16 A2976 RMK A01 T02540157  RH  055%=      5-min Rain = 0
KLA1 240159Z 13009KT 25/16 A2976 RMK A01 T02530157  RH  055%=      5-min Rain = 0
KLA1 240200Z 13009KT 25/16 A2977 RMK A01 T02520157  RH  056%=      5-min Rain = 0
KLA1 240201Z 13008KT 25/16 A2977 RMK A01 T02520158  RH  056%=      5-min Rain = 0
KLA1 240202Z 13011KT 25/16 A2977 RMK A01 T02520157  RH  056%=      5-min Rain = 0
KLA1 240203Z 13008KT 25/16 A2977 RMK A01 T02520158  RH  056%=      5-min Rain = 0
KLA1 240204Z 15007KT 25/16 A2977 RMK A01 T02520158  RH  056%=      5-min Rain = 0
KLA1 240205Z 14007KT 25/16 A2977 RMK A01 T02520158  RH  056%=      5-min Rain = 0
KLA1 240206Z 14008KT 25/16 A2977 RMK A01 T02520158  RH  056%=      5-min Rain = 0
KLA1 240207Z 14010G15KT 25/16 A2978 RMK A01 T02520159  RH  056%=      5-min Rain = 0
KLA1 240208Z 14015KT 25/16 A2978 RMK A01 T02520159  RH  056%=      5-min Rain = 0
KLA1 240209Z 13010G17KT 25/16 A2978 RMK A01 T02540160  RH  056%=      5-min Rain = 0
KLA1 240210Z 13012KT 26/16 A2978 RMK A01 T02550160  RH  056%=      5-min Rain = 0
KLA1 240211Z 13010KT 26/16 A2978 RMK A01 T02560160  RH  056%=      5-min Rain = 0
KLA1 240212Z 13012KT 26/16 A2978 RMK A01 T02560160  RH  055%=      5-min Rain = 0
KLA1 240213Z 13011KT 26/16 A2978 RMK A01 T02570160  RH  055%=      5-min Rain = 0
KLA1 240214Z 13011KT 26/16 A2978 RMK A01 T02570160  RH  055%=      5-min Rain = 0
KLA1 240215Z 13008KT 26/16 A2978 RMK A01 T02570160  RH  055%=      5-min Rain = 0
KLA1 240216Z 14008KT 26/16 A2978 RMK A01 T02570160  RH  055%=      5-min Rain = 0
KLA1 240217Z 14008KT 26/16 A2978 RMK A01 T02570160  RH  055%=      5-min Rain = 0
KLA1 240218Z 14008KT 26/16 A2978 RMK A01 T02560159  RH  055%=      5-min Rain = 0
KLA1 240219Z 14009KT 26/16 A2978 RMK A01 T02550159  RH  055%=      5-min Rain = 0
KLA1 240220Z 14008KT 25/16 A2978 RMK A01 T02540158  RH  055%=      5-min Rain = 0
KLA1 240221Z 13007KT 25/16 A2978 RMK A01 T02540157  RH  055%=      5-min Rain = 0
KLA1 240222Z 13007KT 25/16 A2978 RMK A01 T02540156  RH  055%=      5-min Rain = 0
KLA1 240223Z 14009KT 25/15 A2978 RMK A01 T02540154  RH  054%=      5-min Rain = 0
KLA1 240224Z 13008KT 25/15 A2978 RMK A01 T02540153  RH  054%=      5-min Rain = 0
KLA1 240225Z 14006KT 25/15 A2978 RMK A01 T02540153  RH  053%=      5-min Rain = 0
KLA1 240226Z 15008KT 25/15 A2978 RMK A01 T02540153  RH  053%=      5-min Rain = 0
KLA1 240227Z 15006KT 25/15 A2978 RMK A01 T02540152  RH  053%=      5-min Rain = 0
KLA1 240228Z 14008KT 25/15 A2979 RMK A01 T02540151  RH  053%=      5-min Rain = 0
KLA1 240229Z 14007KT 25/15 A2979 RMK A01 T02530149  RH  052%=      5-min Rain = 0
KLA1 240230Z 14008KT 25/15 A2979 RMK A01 T02540150  RH  053%=      5-min Rain = 0
KLA1 240231Z 13007KT 25/15 A2978 RMK A01 T02540149  RH  052%=      5-min Rain = 0
KLA1 240232Z 13008KT 25/15 A2978 RMK A01 T02540147  RH  052%=      5-min Rain = 0
KLA1 240233Z 13008KT 25/15 A2978 RMK A01 T02540147  RH  051%=      5-min Rain = 0
KLA1 240234Z 13008KT 25/15 A2979 RMK A01 T02540146  RH  051%=      5-min Rain = 0
KLA1 240235Z 13008KT 25/15 A2979 RMK A01 T02540146  RH  051%=      5-min Rain = 0
KLA1 240236Z 13008KT 25/15 A2979 RMK A01 T02530145  RH  051%=      5-min Rain = 0
KLA1 240237Z 13009KT 25/15 A2979 RMK A01 T02530145  RH  051%=      5-min Rain = 0
KLA1 240238Z 12007KT 25/14 A2979 RMK A01 T02520144  RH  051%=      5-min Rain = 0
KLA1 240239Z 12008KT 25/14 A2979 RMK A01 T02520143  RH  051%=      5-min Rain = 0
KLA1 240240Z 11007KT 25/14 A2979 RMK A01 T02520143  RH  051%=      5-min Rain = 0
KLA1 240241Z 11008KT 25/14 A2979 RMK A01 T02510142  RH  051%=      5-min Rain = 0
KLA1 240242Z 11007KT 25/14 A298 RMK A01 T02510141  RH  050%=      5-min Rain = 0
KLA1 240243Z 12009KT 25/14 A298 RMK A01 T02510140  RH  050%=      5-min Rain = 0
KLA1 240244Z 13009KT 25/14 A298 RMK A01 T02510140  RH  050%=      5-min Rain = 0
KLA1 240245Z 12009KT 25/14 A298 RMK A01 T02510139  RH  050%=      5-min Rain = 0
KLA1 240246Z 13009KT 25/14 A298 RMK A01 T02510139  RH  050%=      5-min Rain = 0
KLA1 240247Z 13008KT 25/14 A298 RMK A01 T02520139  RH  050%=      5-min Rain = 0
KLA1 240248Z 13009KT 25/14 A298 RMK A01 T02510138  RH  049%=      5-min Rain = 0
KLA1 240249Z 13009KT 25/14 A2981 RMK A01 T02510138  RH  049%=      5-min Rain = 0
KLA1 240250Z 13006KT 25/14 A2981 RMK A01 T02510139  RH  050%=      5-min Rain = 0
KLA1 240251Z 12007KT 25/14 A2981 RMK A01 T02500139  RH  050%=      5-min Rain = 0
KLA1 240252Z 12008KT 25/14 A2981 RMK A01 T02500140  RH  050%=      5-min Rain = 0
KLA1 240253Z 13007KT 25/14 A2981 RMK A01 T02490140  RH  051%=      5-min Rain = 0
KLA1 240254Z 12008KT 25/14 A2981 RMK A01 T02490141  RH  051%=      5-min Rain = 0
KLA1 240255Z 12008KT 25/14 A2981 RMK A01 T02490142  RH  052%=      5-min Rain = 0
KLA1 240256Z 12008KT 25/14 A2981 RMK A01 T02480142  RH  052%=      5-min Rain = 0
KLA1 240257Z 12007KT 25/14 A2982 RMK A01 T02470143  RH  052%=      5-min Rain = 0
KLA1 240258Z 12011KT 25/14 A2982 RMK A01 T02470143  RH  052%=      5-min Rain = 0
KLA1 240259Z 13010KT 25/14 A2982 RMK A01 T02470143  RH  053%=      5-min Rain = 0
KLA1 240300Z 13011KT 25/14 A2982 RMK A01 T02470143  RH  052%=      5-min Rain = 0
KLA1 240301Z 13009KT 25/14 A2982 RMK A01 T02470143  RH  052%=      5-min Rain = 0
KLA1 240302Z 14011KT 25/14 A2982 RMK A01 T02470143  RH  052%=      5-min Rain = 0
KLA1 240303Z 13010KT 25/14 A2982 RMK A01 T02470143  RH  052%=      5-min Rain = 0
KLA1 240304Z 13010KT 25/14 A2982 RMK A01 T02470143  RH  053%=      5-min Rain = 0
KLA1 240305Z 13011KT 25/14 A2982 RMK A01 T02470144  RH  053%=      5-min Rain = 0
KLA1 240306Z 13011KT 25/14 A2982 RMK A01 T02470144  RH  053%=      5-min Rain = 0
KLA1 240307Z 12012KT 25/14 A2982 RMK A01 T02470144  RH  053%=      5-min Rain = 0
KLA1 240308Z 13010KT 25/14 A2982 RMK A01 T02470144  RH  053%=      5-min Rain = 0
KLA1 240309Z 13010G15KT 25/14 A2982 RMK A01 T02470144  RH  053%=      5-min Rain = 0
KLA1 240310Z 13011KT 25/14 A2982 RMK A01 T02470144  RH  053%=      5-min Rain = 0
KLA1 240311Z 13007KT 25/14 A2982 RMK A01 T02470144  RH  053%=      5-min Rain = 0
KLA1 240312Z 13007KT 25/14 A2982 RMK A01 T02460144  RH  053%=      5-min Rain = 0
KLA1 240313Z 12008KT 25/14 A2983 RMK A01 T02460144  RH  053%=      5-min Rain = 0
KLA1 240314Z 13008KT 25/14 A2983 RMK A01 T02450144  RH  053%=      5-min Rain = 0
KLA1 240315Z 13009KT 24/14 A2983 RMK A01 T02440144  RH  054%=      5-min Rain = 0
KLA1 240316Z 13008KT 24/14 A2983 RMK A01 T02440144  RH  054%=      5-min Rain = 0
KLA1 240317Z 13010KT 24/14 A2983 RMK A01 T02440144  RH  054%=      5-min Rain = 0
KLA1 240318Z 13008KT 24/14 A2983 RMK A01 T02430144  RH  054%=      5-min Rain = 0
KLA1 240319Z 12009KT 24/14 A2983 RMK A01 T02430144  RH  054%=      5-min Rain = 0
KLA1 240320Z 12008KT 24/14 A2983 RMK A01 T02420144  RH  054%=      5-min Rain = 0
KLA1 240321Z 12009KT 24/14 A2983 RMK A01 T02430143  RH  054%=      5-min Rain = 0
KLA1 240322Z 12011KT 24/14 A2984 RMK A01 T02430143  RH  054%=      5-min Rain = 0
KLA1 240323Z 12010KT 24/14 A2984 RMK A01 T02430143  RH  054%=      5-min Rain = 0
KLA1 240324Z 12011KT 24/14 A2984 RMK A01 T02430143  RH  054%=      5-min Rain = 0
KLA1 240325Z 12009KT 24/14 A2984 RMK A01 T02430142  RH  053%=      5-min Rain = 0
KLA1 240326Z 13009KT 24/14 A2984 RMK A01 T02420142  RH  054%=      5-min Rain = 0
KLA1 240327Z 13010KT 24/14 A2984 RMK A01 T02420142  RH  054%=      5-min Rain = 0
KLA1 240328Z 13011KT 24/14 A2984 RMK A01 T02420142  RH  054%=      5-min Rain = 0
KLA1 240329Z 13010KT 24/14 A2984 RMK A01 T02410140  RH  053%=      5-min Rain = 0
KLA1 240330Z 12011KT 24/14 A2984 RMK A01 T02410140  RH  053%=      5-min Rain = 0
KLA1 240331Z 12010KT 24/14 A2984 RMK A01 T02410140  RH  053%=      5-min Rain = 0
KLA1 240332Z 12009KT 24/14 A2984 RMK A01 T02410140  RH  053%=      5-min Rain = 0
KLA1 240333Z 12008KT 24/14 A2984 RMK A01 T02410141  RH  053%=      5-min Rain = 0
KLA1 240334Z 12009KT 24/14 A2984 RMK A01 T02400140  RH  053%=      5-min Rain = 0
KLA1 240335Z 12009KT 24/14 A2984 RMK A01 T02400140  RH  053%=      5-min Rain = 0
KLA1 240336Z 12008KT 24/14 A2984 RMK A01 T02400139  RH  053%=      5-min Rain = 0
KLA1 240337Z 12007KT 24/14 A2984 RMK A01 T02400139  RH  053%=      5-min Rain = 0
KLA1 240338Z 12008KT 24/14 A2984 RMK A01 T02400138  RH  053%=      5-min Rain = 0
KLA1 240339Z 12008KT 24/14 A2984 RMK A01 T02390138  RH  053%=      5-min Rain = 0
KLA1 240340Z 12007KT 24/14 A2985 RMK A01 T02390138  RH  053%=      5-min Rain = 0
KLA1 240341Z 12008KT 24/14 A2985 RMK A01 T02390138  RH  053%=      5-min Rain = 0
KLA1 240342Z 12009KT 24/14 A2985 RMK A01 T02390137  RH  053%=      5-min Rain = 0
KLA1 240343Z 12009G14KT 24/14 A2985 RMK A01 T02380136  RH  053%=      5-min Rain = 0
KLA1 240344Z 12008KT 24/14 A2985 RMK A01 T02380136  RH  053%=      5-min Rain = 0
KLA1 240345Z 11005KT 24/14 A2985 RMK A01 T02380135  RH  052%=      5-min Rain = 0
KLA1 240346Z 12005KT 24/14 A2985 RMK A01 T02380135  RH  052%=      5-min Rain = 0
KLA1 240347Z 12006KT 24/14 A2985 RMK A01 T02380135  RH  053%=      5-min Rain = 0
KLA1 240348Z 12009KT 24/14 A2985 RMK A01 T02370135  RH  053%=      5-min Rain = 0
KLA1 240349Z 13007KT 24/13 A2985 RMK A01 T02370134  RH  052%=      5-min Rain = 0
KLA1 240350Z 13007KT 24/13 A2986 RMK A01 T02370134  RH  052%=      5-min Rain = 0
KLA1 240351Z 13009KT 24/13 A2986 RMK A01 T02370134  RH  052%=      5-min Rain = 0
KLA1 240352Z 13007KT 24/13 A2986 RMK A01 T02370134  RH  052%=      5-min Rain = 0
KLA1 240353Z 13009KT 24/13 A2986 RMK A01 T02370134  RH  052%=      5-min Rain = 0
KLA1 240354Z 12008KT 24/13 A2986 RMK A01 T02360133  RH  052%=      5-min Rain = 0
KLA1 240355Z 12008KT 24/13 A2986 RMK A01 T02370133  RH  052%=      5-min Rain = 0
KLA1 240356Z 12010KT 24/13 A2986 RMK A01 T02360133  RH  052%=      5-min Rain = 0
KLA1 240357Z 12011KT 24/13 A2986 RMK A01 T02360133  RH  052%=      5-min Rain = 0
KLA1 240358Z 13010KT 24/13 A2986 RMK A01 T02370132  RH  052%=      5-min Rain = 0
KLA1 240359Z 12008KT 24/13 A2986 RMK A01 T02380132  RH  052%=      5-min Rain = 0
KLA1 240400Z 13007KT 24/13 A2986 RMK A01 T02380132  RH  052%=      5-min Rain = 0
KLA1 240401Z 13007KT 24/13 A2986 RMK A01 T02370132  RH  052%=      5-min Rain = 0
KLA1 240402Z 14006KT 24/13 A2986 RMK A01 T02360132  RH  052%=      5-min Rain = 0
KLA1 240403Z 13009KT 24/13 A2986 RMK A01 T02360132  RH  052%=      5-min Rain = 0
KLA1 240404Z 13006KT 24/13 A2986 RMK A01 T02350132  RH  052%=      5-min Rain = 0
KLA1 240405Z 12006KT 24/13 A2986 RMK A01 T02350132  RH  052%=      5-min Rain = 0
KLA1 240406Z 13005KT 24/13 A2986 RMK A01 T02350131  RH  052%=      5-min Rain = 0
KLA1 240407Z 13008KT 24/13 A2986 RMK A01 T02350132  RH  052%=      5-min Rain = 0
KLA1 240408Z 12005KT 24/13 A2986 RMK A01 T02350132  RH  052%=      5-min Rain = 0
KLA1 240409Z 13004KT 23/13 A2986 RMK A01 T02340131  RH  052%=      5-min Rain = 0
KLA1 240410Z 13005KT 23/13 A2986 RMK A01 T02340132  RH  052%=      5-min Rain = 0
KLA1 240411Z 14004KT 23/13 A2987 RMK A01 T02340131  RH  052%=      5-min Rain = 0
KLA1 240412Z 14005KT 23/13 A2987 RMK A01 T02330131  RH  052%=      5-min Rain = 0
KLA1 240413Z 15004KT 23/13 A2987 RMK A01 T02330131  RH  053%=      5-min Rain = 0
KLA1 240414Z 14004KT 23/13 A2987 RMK A01 T02320131  RH  053%=      5-min Rain = 0
KLA1 240415Z 15003KT 23/13 A2987 RMK A01 T02320131  RH  053%=      5-min Rain = 0
KLA1 240416Z 14004KT 23/13 A2987 RMK A01 T02310131  RH  053%=      5-min Rain = 0
KLA1 240417Z 14004KT 23/13 A2987 RMK A01 T02300131  RH  053%=      5-min Rain = 0
KLA1 240418Z 13004KT 23/13 A2987 RMK A01 T02300130  RH  053%=      5-min Rain = 0
KLA1 240419Z 12005KT 23/13 A2987 RMK A01 T02300130  RH  054%=      5-min Rain = 0
KLA1 240420Z 12005KT 23/13 A2987 RMK A01 T02290130  RH  054%=      5-min Rain = 0
KLA1 240421Z 12005KT 23/13 A2987 RMK A01 T02290130  RH  054%=      5-min Rain = 0
KLA1 240422Z 12004KT 23/13 A2986 RMK A01 T02290130  RH  054%=      5-min Rain = 0
KLA1 240423Z 12004KT 23/13 A2986 RMK A01 T02290131  RH  054%=      5-min Rain = 0
KLA1 240424Z 12005KT 23/13 A2986 RMK A01 T02290131  RH  054%=      5-min Rain = 0
KLA1 240425Z 12005KT 23/13 A2986 RMK A01 T02290131  RH  054%=      5-min Rain = 0
KLA1 240426Z 12004KT 23/13 A2986 RMK A01 T02290131  RH  054%=      5-min Rain = 0
KLA1 240427Z 11004KT 23/13 A2986 RMK A01 T02290131  RH  054%=      5-min Rain = 0
KLA1 240428Z 11003KT 23/13 A2987 RMK A01 T02290131  RH  054%=      5-min Rain = 0
KLA1 240429Z 11003KT 23/13 A2987 RMK A01 T02290131  RH  054%=      5-min Rain = 0
KLA1 240430Z 11004KT 23/13 A2987 RMK A01 T02290131  RH  054%=      5-min Rain = 0
KLA1 240431Z 11005KT 23/13 A2987 RMK A01 T02280131  RH  054%=      5-min Rain = 0
KLA1 240432Z 11005KT 23/13 A2987 RMK A01 T02280131  RH  054%=      5-min Rain = 0
KLA1 240433Z 11005KT 23/13 A2987 RMK A01 T02280131  RH  054%=      5-min Rain = 0
KLA1 240434Z 11005KT 23/13 A2987 RMK A01 T02290131  RH  054%=      5-min Rain = 0
KLA1 240435Z 11005KT 23/13 A2987 RMK A01 T02290131  RH  054%=      5-min Rain = 0
KLA1 240436Z 11006KT 23/13 A2987 RMK A01 T02290131  RH  054%=      5-min Rain = 0
KLA1 240437Z 12006KT 23/13 A2986 RMK A01 T02300132  RH  054%=      5-min Rain = 0
KLA1 240438Z 12004KT 23/13 A2986 RMK A01 T02310132  RH  054%=      5-min Rain = 0
KLA1 240439Z 13005KT 23/13 A2986 RMK A01 T02310132  RH  054%=      5-min Rain = 0
KLA1 240440Z 13004KT 23/13 A2986 RMK A01 T02300132  RH  054%=      5-min Rain = 0
KLA1 240441Z 13006KT 23/13 A2986 RMK A01 T02300132  RH  054%=      5-min Rain = 0
KLA1 240442Z 13007KT 23/13 A2986 RMK A01 T02290132  RH  054%=      5-min Rain = 0
KLA1 240443Z 12007KT 23/13 A2986 RMK A01 T02290132  RH  054%=      5-min Rain = 0
KLA1 240444Z 12007KT 23/13 A2986 RMK A01 T02290132  RH  054%=      5-min Rain = 0
KLA1 240445Z 12007KT 23/13 A2986 RMK A01 T02290132  RH  054%=      5-min Rain = 0
KLA1 240446Z 12006KT 23/13 A2986 RMK A01 T02290132  RH  054%=      5-min Rain = 0
KLA1 240447Z 12005KT 23/13 A2986 RMK A01 T02290132  RH  054%=      5-min Rain = 0
KLA1 240448Z 12005KT 23/13 A2986 RMK A01 T02290132  RH  054%=      5-min Rain = 0
KLA1 240449Z 13006KT 23/13 A2986 RMK A01 T02280132  RH  055%=      5-min Rain = 0
KLA1 240450Z 13006KT 23/13 A2986 RMK A01 T02280132  RH  055%=      5-min Rain = 0
KLA1 240451Z 12005KT 23/13 A2986 RMK A01 T02280132  RH  055%=      5-min Rain = 0
KLA1 240452Z 13004KT 23/13 A2986 RMK A01 T02270132  RH  055%=      5-min Rain = 0
KLA1 240453Z 13004KT 23/13 A2986 RMK A01 T02260132  RH  055%=      5-min Rain = 0
KLA1 240454Z 13004KT 23/13 A2986 RMK A01 T02260132  RH  055%=      5-min Rain = 0
KLA1 240455Z 14005KT 23/13 A2986 RMK A01 T02260132  RH  055%=      5-min Rain = 0
KLA1 240456Z 14005KT 23/13 A2987 RMK A01 T02260132  RH  055%=      5-min Rain = 0
KLA1 240457Z 14006KT 23/13 A2987 RMK A01 T02250132  RH  055%=      5-min Rain = 0
KLA1 240458Z 14007KT 23/13 A2986 RMK A01 T02250132  RH  056%=      5-min Rain = 0
KLA1 240459Z 13007KT 23/13 A2986 RMK A01 T02250132  RH  056%=      5-min Rain = 0

Page generated in 0.1449 seconds.